<?xml version='1.0' encoding='UTF-8'?><gpx version="1.1" creator="JPX - https://github.com/jenetics/jpx" xmlns="http://www.topografix.com/GPX/1/1"><trk><trkseg><trkpt lat="44.8403217" lon="9.5627983"><ele>482.40000000000003</ele><time>2026-04-05T13:27:13.191Z</time></trkpt><trkpt lat="44.840305" lon="9.5629217"><ele>482.80000000000007</ele><time>2026-04-05T13:27:14.191Z</time></trkpt><trkpt lat="44.8402817" lon="9.5630617"><ele>483.2</ele><time>2026-04-05T13:27:15.191Z</time></trkpt><trkpt lat="44.8402533" lon="9.563215"><ele>483.6</ele><time>2026-04-05T13:27:16.19Z</time></trkpt><trkpt lat="44.8402217" lon="9.56338"><ele>484.0</ele><time>2026-04-05T13:27:17.191Z</time></trkpt><trkpt lat="44.84019" lon="9.5635383"><ele>484.0</ele><time>2026-04-05T13:27:18.193Z</time></trkpt><trkpt lat="44.84016" lon="9.5636883"><ele>484.0</ele><time>2026-04-05T13:27:19.192Z</time></trkpt><trkpt lat="44.840125" lon="9.5638367"><ele>484.0</ele><time>2026-04-05T13:27:20.193Z</time></trkpt><trkpt lat="44.8400917" lon="9.5639833"><ele>484.0</ele><time>2026-04-05T13:27:21.192Z</time></trkpt><trkpt lat="44.8400583" lon="9.5641317"><ele>484.0</ele><time>2026-04-05T13:27:22.19Z</time></trkpt><trkpt lat="44.840025" lon="9.56428"><ele>486.33333333333337</ele><time>2026-04-05T13:27:23.191Z</time></trkpt><trkpt lat="44.83999" lon="9.5644133"><ele>488.6666666666667</ele><time>2026-04-05T13:27:24.191Z</time></trkpt><trkpt lat="44.8399533" lon="9.56453"><ele>491.0</ele><time>2026-04-05T13:27:25.191Z</time></trkpt><trkpt lat="44.8399167" lon="9.564625"><ele>493.33333333333337</ele><time>2026-04-05T13:27:26.191Z</time></trkpt><trkpt lat="44.8398717" lon="9.5647083"><ele>495.6666666666667</ele><time>2026-04-05T13:27:27.191Z</time></trkpt><trkpt lat="44.839815" lon="9.5647817"><ele>498.0</ele><time>2026-04-05T13:27:28.192Z</time></trkpt><trkpt lat="44.839755" lon="9.5648467"><ele>498.0</ele><time>2026-04-05T13:27:29.191Z</time></trkpt><trkpt lat="44.8396967" lon="9.5649017"><ele>497.99999999999994</ele><time>2026-04-05T13:27:30.192Z</time></trkpt><trkpt lat="44.8396083" lon="9.565005"><ele>497.99999999999994</ele><time>2026-04-05T13:27:32.191Z</time></trkpt><trkpt lat="44.83959" lon="9.565235"><ele>498.0</ele><time>2026-04-05T13:27:35.189Z</time></trkpt><trkpt lat="44.8396067" lon="9.5653333"><ele>498.0</ele><time>2026-04-05T13:27:36.19Z</time></trkpt><trkpt lat="44.83962" lon="9.565455"><ele>496.79999999999995</ele><time>2026-04-05T13:27:37.19Z</time></trkpt><trkpt lat="44.8396333" lon="9.56558"><ele>495.59999999999997</ele><time>2026-04-05T13:27:38.19Z</time></trkpt><trkpt lat="44.8396233" lon="9.5657"><ele>494.40000000000003</ele><time>2026-04-05T13:27:39.189Z</time></trkpt><trkpt lat="44.8395833" lon="9.56582"><ele>493.20000000000005</ele><time>2026-04-05T13:27:40.19Z</time></trkpt><trkpt lat="44.8395133" lon="9.5659283"><ele>492.0</ele><time>2026-04-05T13:27:41.189Z</time></trkpt><trkpt lat="44.8394333" lon="9.5660167"><ele>492.0</ele><time>2026-04-05T13:27:42.189Z</time></trkpt><trkpt lat="44.8393567" lon="9.5660833"><ele>492.0</ele><time>2026-04-05T13:27:43.19Z</time></trkpt><trkpt lat="44.8392783" lon="9.56614"><ele>492.0</ele><time>2026-04-05T13:27:44.19Z</time></trkpt><trkpt lat="44.8392117" lon="9.566205"><ele>492.0</ele><time>2026-04-05T13:27:45.189Z</time></trkpt><trkpt lat="44.83916" lon="9.56628"><ele>492.0</ele><time>2026-04-05T13:27:46.188Z</time></trkpt><trkpt lat="44.8391167" lon="9.56638"><ele>492.0</ele><time>2026-04-05T13:27:47.189Z</time></trkpt><trkpt lat="44.83909" lon="9.56649"><ele>492.8333333333333</ele><time>2026-04-05T13:27:48.19Z</time></trkpt><trkpt lat="44.83906" lon="9.5665883"><ele>493.66666666666663</ele><time>2026-04-05T13:27:49.189Z</time></trkpt><trkpt lat="44.8390317" lon="9.5666767"><ele>494.5</ele><time>2026-04-05T13:27:50.189Z</time></trkpt><trkpt lat="44.8389733" lon="9.566765"><ele>495.3333333333333</ele><time>2026-04-05T13:27:51.191Z</time></trkpt><trkpt lat="44.8388883" lon="9.5668467"><ele>496.16666666666663</ele><time>2026-04-05T13:27:52.19Z</time></trkpt><trkpt lat="44.8388083" lon="9.5669483"><ele>497.0</ele><time>2026-04-05T13:27:53.189Z</time></trkpt><trkpt lat="44.8387367" lon="9.5670567"><ele>497.49999999999994</ele><time>2026-04-05T13:27:54.189Z</time></trkpt><trkpt lat="44.8386833" lon="9.567165"><ele>498.0</ele><time>2026-04-05T13:27:55.191Z</time></trkpt><trkpt lat="44.8386533" lon="9.5672717"><ele>498.5</ele><time>2026-04-05T13:27:56.193Z</time></trkpt><trkpt lat="44.8386367" lon="9.56738"><ele>499.0</ele><time>2026-04-05T13:27:57.189Z</time></trkpt><trkpt lat="44.8386333" lon="9.56748"><ele>499.49999999999994</ele><time>2026-04-05T13:27:58.188Z</time></trkpt><trkpt lat="44.8386417" lon="9.56757"><ele>500.0</ele><time>2026-04-05T13:27:59.187Z</time></trkpt><trkpt lat="44.8386667" lon="9.567675"><ele>499.99999999999994</ele><time>2026-04-05T13:28:01.187Z</time></trkpt><trkpt lat="44.8387533" lon="9.5677483"><ele>500.0</ele><time>2026-04-05T13:28:12.189Z</time></trkpt><trkpt lat="44.8388217" lon="9.567815"><ele>500.0</ele><time>2026-04-05T13:28:13.187Z</time></trkpt><trkpt lat="44.838895" lon="9.56788"><ele>500.0</ele><time>2026-04-05T13:28:14.189Z</time></trkpt><trkpt lat="44.8389717" lon="9.567935"><ele>499.99999999999994</ele><time>2026-04-05T13:28:15.188Z</time></trkpt><trkpt lat="44.8390517" lon="9.5679817"><ele>500.0</ele><time>2026-04-05T13:28:16.187Z</time></trkpt><trkpt lat="44.839135" lon="9.5680367"><ele>502.2</ele><time>2026-04-05T13:28:17.188Z</time></trkpt><trkpt lat="44.839205" lon="9.5680983"><ele>504.4</ele><time>2026-04-05T13:28:18.188Z</time></trkpt><trkpt lat="44.8392767" lon="9.5681783"><ele>506.6</ele><time>2026-04-05T13:28:19.189Z</time></trkpt><trkpt lat="44.8393483" lon="9.5682717"><ele>508.8</ele><time>2026-04-05T13:28:20.19Z</time></trkpt><trkpt lat="44.839415" lon="9.5683683"><ele>511.0</ele><time>2026-04-05T13:28:21.188Z</time></trkpt><trkpt lat="44.8394783" lon="9.5684617"><ele>511.00000000000006</ele><time>2026-04-05T13:28:22.188Z</time></trkpt><trkpt lat="44.8395467" lon="9.568545"><ele>511.0</ele><time>2026-04-05T13:28:23.188Z</time></trkpt><trkpt lat="44.839615" lon="9.5686233"><ele>511.0</ele><time>2026-04-05T13:28:24.188Z</time></trkpt><trkpt lat="44.839685" lon="9.5687067"><ele>511.0</ele><time>2026-04-05T13:28:25.19Z</time></trkpt><trkpt lat="44.8397517" lon="9.5687767"><ele>511.00000000000006</ele><time>2026-04-05T13:28:26.189Z</time></trkpt><trkpt lat="44.8398183" lon="9.5688233"><ele>511.0</ele><time>2026-04-05T13:28:27.189Z</time></trkpt><trkpt lat="44.8398867" lon="9.5688567"><ele>513.1666666666667</ele><time>2026-04-05T13:28:28.189Z</time></trkpt><trkpt lat="44.8399567" lon="9.568875"><ele>515.3333333333334</ele><time>2026-04-05T13:28:29.187Z</time></trkpt><trkpt lat="44.8400283" lon="9.5688767"><ele>517.5</ele><time>2026-04-05T13:28:30.188Z</time></trkpt><trkpt lat="44.8401117" lon="9.5688783"><ele>519.6666666666666</ele><time>2026-04-05T13:28:31.19Z</time></trkpt><trkpt lat="44.8402017" lon="9.5688667"><ele>521.8333333333333</ele><time>2026-04-05T13:28:32.188Z</time></trkpt><trkpt lat="44.840305" lon="9.56885"><ele>524.0</ele><time>2026-04-05T13:28:33.188Z</time></trkpt><trkpt lat="44.8404017" lon="9.5688333"><ele>524.0</ele><time>2026-04-05T13:28:34.188Z</time></trkpt><trkpt lat="44.84049" lon="9.5688233"><ele>524.0</ele><time>2026-04-05T13:28:35.188Z</time></trkpt><trkpt lat="44.8405667" lon="9.56882"><ele>524.0</ele><time>2026-04-05T13:28:36.189Z</time></trkpt><trkpt lat="44.8406733" lon="9.5688517"><ele>524.0</ele><time>2026-04-05T13:28:38.188Z</time></trkpt><trkpt lat="44.840755" lon="9.56889"><ele>524.0</ele><time>2026-04-05T13:28:40.188Z</time></trkpt><trkpt lat="44.8408233" lon="9.5689317"><ele>524.0</ele><time>2026-04-05T13:28:42.189Z</time></trkpt><trkpt lat="44.8409068" lon="9.5690049"><ele>524.0</ele><time>2026-04-05T13:28:49.19Z</time></trkpt><trkpt lat="44.8409577" lon="9.5691085"><ele>524.0</ele><time>2026-04-05T13:28:51.19Z</time></trkpt><trkpt lat="44.840965" lon="9.5692374"><ele>524.0</ele><time>2026-04-05T13:28:53.19Z</time></trkpt><trkpt lat="44.8409295" lon="9.5693695"><ele>524.0</ele><time>2026-04-05T13:28:55.19Z</time></trkpt><trkpt lat="44.8409111" lon="9.5695112"><ele>524.0</ele><time>2026-04-05T13:28:57.189Z</time></trkpt><trkpt lat="44.8409675" lon="9.5696009"><ele>522.2</ele><time>2026-04-05T13:28:59.189Z</time></trkpt><trkpt lat="44.8410979" lon="9.5696261"><ele>520.4</ele><time>2026-04-05T13:29:01.188Z</time></trkpt><trkpt lat="44.8411673" lon="9.5696347"><ele>518.6</ele><time>2026-04-05T13:29:02.19Z</time></trkpt><trkpt lat="44.8412763" lon="9.5696884"><ele>516.8</ele><time>2026-04-05T13:29:04.188Z</time></trkpt><trkpt lat="44.8413908" lon="9.5697153"><ele>515.0</ele><time>2026-04-05T13:29:06.188Z</time></trkpt><trkpt lat="44.8414595" lon="9.569716"><ele>515.0</ele><time>2026-04-05T13:29:07.19Z</time></trkpt><trkpt lat="44.8415264" lon="9.56972"><ele>515.0</ele><time>2026-04-05T13:29:08.19Z</time></trkpt><trkpt lat="44.8415916" lon="9.5697339"><ele>515.0</ele><time>2026-04-05T13:29:09.189Z</time></trkpt><trkpt lat="44.8416536" lon="9.5697525"><ele>515.0</ele><time>2026-04-05T13:29:10.188Z</time></trkpt><trkpt lat="44.841763" lon="9.5697891"><ele>515.0</ele><time>2026-04-05T13:29:12.189Z</time></trkpt><trkpt lat="44.8418609" lon="9.5698114"><ele>515.0</ele><time>2026-04-05T13:29:14.19Z</time></trkpt><trkpt lat="44.8419618" lon="9.5698143"><ele>512.6</ele><time>2026-04-05T13:29:16.189Z</time></trkpt><trkpt lat="44.842051" lon="9.5697902"><ele>510.2</ele><time>2026-04-05T13:29:18.188Z</time></trkpt><trkpt lat="44.8421348" lon="9.5697669"><ele>507.79999999999995</ele><time>2026-04-05T13:29:20.189Z</time></trkpt><trkpt lat="44.842226" lon="9.5697423"><ele>505.4</ele><time>2026-04-05T13:29:22.19Z</time></trkpt><trkpt lat="44.8423071" lon="9.5696782"><ele>503.0</ele><time>2026-04-05T13:29:24.188Z</time></trkpt><trkpt lat="44.8423705" lon="9.5695827"><ele>502.99999999999994</ele><time>2026-04-05T13:29:26.189Z</time></trkpt><trkpt lat="44.842422" lon="9.5695097"><ele>503.0</ele><time>2026-04-05T13:29:28.188Z</time></trkpt><trkpt lat="44.8425067" lon="9.56955"><ele>503.0</ele><time>2026-04-05T13:29:31.188Z</time></trkpt><trkpt lat="44.8425217" lon="9.5696417"><ele>503.0</ele><time>2026-04-05T13:29:33.188Z</time></trkpt><trkpt lat="44.8425433" lon="9.5697433"><ele>502.99999999999994</ele><time>2026-04-05T13:29:37.189Z</time></trkpt><trkpt lat="44.8426317" lon="9.5697267"><ele>503.0</ele><time>2026-04-05T13:29:42.188Z</time></trkpt><trkpt lat="44.84273" lon="9.5696733"><ele>503.0</ele><time>2026-04-05T13:29:44.189Z</time></trkpt><trkpt lat="44.8427983" lon="9.5696633"><ele>503.00000000000006</ele><time>2026-04-05T13:29:45.188Z</time></trkpt><trkpt lat="44.8428683" lon="9.569665"><ele>503.0</ele><time>2026-04-05T13:29:46.189Z</time></trkpt><trkpt lat="44.8429333" lon="9.5696817"><ele>503.0</ele><time>2026-04-05T13:29:47.188Z</time></trkpt><trkpt lat="44.8429967" lon="9.5697133"><ele>503.00000000000006</ele><time>2026-04-05T13:29:48.189Z</time></trkpt><trkpt lat="44.843055" lon="9.5697633"><ele>503.0</ele><time>2026-04-05T13:29:49.19Z</time></trkpt><trkpt lat="44.8431133" lon="9.5698333"><ele>503.0</ele><time>2026-04-05T13:29:50.189Z</time></trkpt><trkpt lat="44.8431617" lon="9.569925"><ele>503.0</ele><time>2026-04-05T13:29:51.189Z</time></trkpt><trkpt lat="44.8431983" lon="9.5700417"><ele>503.0</ele><time>2026-04-05T13:29:52.19Z</time></trkpt><trkpt lat="44.8432083" lon="9.5702067"><ele>503.0</ele><time>2026-04-05T13:29:53.191Z</time></trkpt><trkpt lat="44.843215" lon="9.5703933"><ele>503.0</ele><time>2026-04-05T13:29:54.19Z</time></trkpt><trkpt lat="44.8432183" lon="9.5705933"><ele>503.5</ele><time>2026-04-05T13:29:55.188Z</time></trkpt><trkpt lat="44.843215" lon="9.5708033"><ele>504.0</ele><time>2026-04-05T13:29:56.189Z</time></trkpt><trkpt lat="44.84321" lon="9.5710033"><ele>504.5</ele><time>2026-04-05T13:29:57.192Z</time></trkpt><trkpt lat="44.8432083" lon="9.5711917"><ele>505.0</ele><time>2026-04-05T13:29:58.19Z</time></trkpt><trkpt lat="44.8432167" lon="9.5713733"><ele>505.25</ele><time>2026-04-05T13:29:59.19Z</time></trkpt><trkpt lat="44.8432283" lon="9.571545"><ele>505.5</ele><time>2026-04-05T13:30:00.19Z</time></trkpt><trkpt lat="44.8432467" lon="9.5717067"><ele>505.75</ele><time>2026-04-05T13:30:01.189Z</time></trkpt><trkpt lat="44.8432633" lon="9.5718667"><ele>506.0</ele><time>2026-04-05T13:30:02.189Z</time></trkpt><trkpt lat="44.8432767" lon="9.5720333"><ele>506.0</ele><time>2026-04-05T13:30:03.189Z</time></trkpt><trkpt lat="44.8432767" lon="9.5722217"><ele>506.0</ele><time>2026-04-05T13:30:04.191Z</time></trkpt><trkpt lat="44.8432617" lon="9.572425"><ele>506.0</ele><time>2026-04-05T13:30:05.19Z</time></trkpt><trkpt lat="44.8432417" lon="9.5726433"><ele>506.0</ele><time>2026-04-05T13:30:06.189Z</time></trkpt><trkpt lat="44.84323" lon="9.5728733"><ele>507.0</ele><time>2026-04-05T13:30:07.189Z</time></trkpt><trkpt lat="44.8432283" lon="9.57311"><ele>508.0</ele><time>2026-04-05T13:30:08.189Z</time></trkpt><trkpt lat="44.84323" lon="9.5733433"><ele>509.0</ele><time>2026-04-05T13:30:09.188Z</time></trkpt><trkpt lat="44.8432317" lon="9.573575"><ele>508.66666666666663</ele><time>2026-04-05T13:30:10.189Z</time></trkpt><trkpt lat="44.8432283" lon="9.5738083"><ele>508.33333333333337</ele><time>2026-04-05T13:30:11.189Z</time></trkpt><trkpt lat="44.84322" lon="9.5740367"><ele>508.0</ele><time>2026-04-05T13:30:12.188Z</time></trkpt><trkpt lat="44.8432067" lon="9.57425"><ele>508.0</ele><time>2026-04-05T13:30:13.189Z</time></trkpt><trkpt lat="44.8431817" lon="9.5744583"><ele>508.0</ele><time>2026-04-05T13:30:14.189Z</time></trkpt><trkpt lat="44.8431617" lon="9.574665"><ele>508.0</ele><time>2026-04-05T13:30:15.189Z</time></trkpt><trkpt lat="44.8431517" lon="9.574855"><ele>508.0</ele><time>2026-04-05T13:30:16.188Z</time></trkpt><trkpt lat="44.8431483" lon="9.5750217"><ele>508.4</ele><time>2026-04-05T13:30:17.188Z</time></trkpt><trkpt lat="44.84316" lon="9.5751517"><ele>508.79999999999995</ele><time>2026-04-05T13:30:18.189Z</time></trkpt><trkpt lat="44.8431833" lon="9.5752633"><ele>509.2</ele><time>2026-04-05T13:30:19.188Z</time></trkpt><trkpt lat="44.843225" lon="9.5753817"><ele>509.6</ele><time>2026-04-05T13:30:20.19Z</time></trkpt><trkpt lat="44.8433017" lon="9.57553"><ele>510.0</ele><time>2026-04-05T13:30:21.19Z</time></trkpt><trkpt lat="44.8433733" lon="9.5756783"><ele>510.0</ele><time>2026-04-05T13:30:22.188Z</time></trkpt><trkpt lat="44.8434417" lon="9.5758117"><ele>510.0</ele><time>2026-04-05T13:30:23.188Z</time></trkpt><trkpt lat="44.8435033" lon="9.5759267"><ele>510.0</ele><time>2026-04-05T13:30:24.188Z</time></trkpt><trkpt lat="44.843575" lon="9.5760233"><ele>510.0</ele><time>2026-04-05T13:30:25.189Z</time></trkpt><trkpt lat="44.8436733" lon="9.576095"><ele>510.0</ele><time>2026-04-05T13:30:26.19Z</time></trkpt><trkpt lat="44.843785" lon="9.5761483"><ele>510.0</ele><time>2026-04-05T13:30:27.188Z</time></trkpt><trkpt lat="44.8439083" lon="9.5761783"><ele>510.0</ele><time>2026-04-05T13:30:28.189Z</time></trkpt><trkpt lat="44.8440283" lon="9.5762"><ele>510.0</ele><time>2026-04-05T13:30:29.19Z</time></trkpt><trkpt lat="44.8441367" lon="9.5762183"><ele>510.0</ele><time>2026-04-05T13:30:30.19Z</time></trkpt><trkpt lat="44.8442267" lon="9.5762433"><ele>510.0</ele><time>2026-04-05T13:30:31.189Z</time></trkpt><trkpt lat="44.8443083" lon="9.5762833"><ele>512.2</ele><time>2026-04-05T13:30:32.189Z</time></trkpt><trkpt lat="44.8443683" lon="9.576345"><ele>514.4</ele><time>2026-04-05T13:30:33.189Z</time></trkpt><trkpt lat="44.8444033" lon="9.5764483"><ele>516.6</ele><time>2026-04-05T13:30:34.189Z</time></trkpt><trkpt lat="44.8444283" lon="9.5765617"><ele>518.8</ele><time>2026-04-05T13:30:35.189Z</time></trkpt><trkpt lat="44.8444317" lon="9.57669"><ele>521.0</ele><time>2026-04-05T13:30:36.19Z</time></trkpt><trkpt lat="44.8443517" lon="9.5768617"><ele>521.0</ele><time>2026-04-05T13:30:37.188Z</time></trkpt><trkpt lat="44.8443183" lon="9.5769967"><ele>521.0</ele><time>2026-04-05T13:30:38.189Z</time></trkpt><trkpt lat="44.84429" lon="9.5771267"><ele>521.0</ele><time>2026-04-05T13:30:39.188Z</time></trkpt><trkpt lat="44.844285" lon="9.5772633"><ele>521.0</ele><time>2026-04-05T13:30:40.19Z</time></trkpt><trkpt lat="44.84431" lon="9.5774017"><ele>521.0</ele><time>2026-04-05T13:30:41.19Z</time></trkpt><trkpt lat="44.8443417" lon="9.57755"><ele>519.6</ele><time>2026-04-05T13:30:42.188Z</time></trkpt><trkpt lat="44.8444017" lon="9.577685"><ele>518.2</ele><time>2026-04-05T13:30:43.188Z</time></trkpt><trkpt lat="44.8444633" lon="9.577805"><ele>516.8</ele><time>2026-04-05T13:30:44.188Z</time></trkpt><trkpt lat="44.844525" lon="9.5779"><ele>515.4</ele><time>2026-04-05T13:30:45.188Z</time></trkpt><trkpt lat="44.844595" lon="9.5779917"><ele>514.0</ele><time>2026-04-05T13:30:46.189Z</time></trkpt><trkpt lat="44.844655" lon="9.5780883"><ele>513.0</ele><time>2026-04-05T13:30:47.188Z</time></trkpt><trkpt lat="44.844695" lon="9.578185"><ele>512.0</ele><time>2026-04-05T13:30:48.19Z</time></trkpt><trkpt lat="44.8447183" lon="9.5782917"><ele>511.0</ele><time>2026-04-05T13:30:49.189Z</time></trkpt><trkpt lat="44.8447217" lon="9.5784117"><ele>510.0</ele><time>2026-04-05T13:30:50.189Z</time></trkpt><trkpt lat="44.8446983" lon="9.5785417"><ele>509.0</ele><time>2026-04-05T13:30:51.188Z</time></trkpt><trkpt lat="44.8446533" lon="9.578695"><ele>509.0</ele><time>2026-04-05T13:30:52.188Z</time></trkpt><trkpt lat="44.8446133" lon="9.578855"><ele>509.0</ele><time>2026-04-05T13:30:53.189Z</time></trkpt><trkpt lat="44.8445933" lon="9.5790117"><ele>509.0</ele><time>2026-04-05T13:30:54.192Z</time></trkpt><trkpt lat="44.8445967" lon="9.5791617"><ele>509.0</ele><time>2026-04-05T13:30:55.188Z</time></trkpt><trkpt lat="44.8446183" lon="9.5793083"><ele>509.0</ele><time>2026-04-05T13:30:56.19Z</time></trkpt><trkpt lat="44.8446683" lon="9.579445"><ele>508.25</ele><time>2026-04-05T13:30:57.188Z</time></trkpt><trkpt lat="44.8447433" lon="9.57959"><ele>507.5</ele><time>2026-04-05T13:30:58.189Z</time></trkpt><trkpt lat="44.8448283" lon="9.5797467"><ele>506.75</ele><time>2026-04-05T13:30:59.189Z</time></trkpt><trkpt lat="44.8449183" lon="9.5799167"><ele>506.0</ele><time>2026-04-05T13:31:00.191Z</time></trkpt><trkpt lat="44.845005" lon="9.5800883"><ele>506.0</ele><time>2026-04-05T13:31:01.189Z</time></trkpt><trkpt lat="44.8450917" lon="9.5802533"><ele>506.0</ele><time>2026-04-05T13:31:02.189Z</time></trkpt><trkpt lat="44.8451783" lon="9.58042"><ele>506.0</ele><time>2026-04-05T13:31:03.188Z</time></trkpt><trkpt lat="44.8452567" lon="9.5805767"><ele>506.0</ele><time>2026-04-05T13:31:04.188Z</time></trkpt><trkpt lat="44.8453267" lon="9.5807317"><ele>506.25</ele><time>2026-04-05T13:31:05.189Z</time></trkpt><trkpt lat="44.8453883" lon="9.5808817"><ele>506.5</ele><time>2026-04-05T13:31:06.189Z</time></trkpt><trkpt lat="44.8454533" lon="9.5810367"><ele>506.75</ele><time>2026-04-05T13:31:07.19Z</time></trkpt><trkpt lat="44.845515" lon="9.581185"><ele>507.0</ele><time>2026-04-05T13:31:08.189Z</time></trkpt><trkpt lat="44.8455767" lon="9.5813217"><ele>507.0</ele><time>2026-04-05T13:31:09.189Z</time></trkpt><trkpt lat="44.845635" lon="9.581435"><ele>507.0</ele><time>2026-04-05T13:31:10.189Z</time></trkpt><trkpt lat="44.845685" lon="9.5815333"><ele>507.0</ele><time>2026-04-05T13:31:11.191Z</time></trkpt><trkpt lat="44.84573" lon="9.5816133"><ele>507.0</ele><time>2026-04-05T13:31:12.188Z</time></trkpt><trkpt lat="44.8458167" lon="9.581705"><ele>507.0</ele><time>2026-04-05T13:31:14.193Z</time></trkpt><trkpt lat="44.8458767" lon="9.5817417"><ele>507.0</ele><time>2026-04-05T13:31:15.19Z</time></trkpt><trkpt lat="44.845945" lon="9.5817783"><ele>510.20000000000005</ele><time>2026-04-05T13:31:16.189Z</time></trkpt><trkpt lat="44.8460067" lon="9.58182"><ele>513.4000000000001</ele><time>2026-04-05T13:31:17.189Z</time></trkpt><trkpt lat="44.84609" lon="9.58194"><ele>516.5999999999999</ele><time>2026-04-05T13:31:19.193Z</time></trkpt><trkpt lat="44.846095" lon="9.5821217"><ele>519.8</ele><time>2026-04-05T13:31:21.188Z</time></trkpt><trkpt lat="44.8460533" lon="9.5822517"><ele>523.0</ele><time>2026-04-05T13:31:22.188Z</time></trkpt><trkpt lat="44.8460133" lon="9.5823667"><ele>521.1999999999999</ele><time>2026-04-05T13:31:23.189Z</time></trkpt><trkpt lat="44.8459517" lon="9.58247"><ele>519.4</ele><time>2026-04-05T13:31:24.189Z</time></trkpt><trkpt lat="44.8458817" lon="9.5825583"><ele>517.5999999999999</ele><time>2026-04-05T13:31:25.19Z</time></trkpt><trkpt lat="44.84579" lon="9.582645"><ele>515.8</ele><time>2026-04-05T13:31:26.189Z</time></trkpt><trkpt lat="44.8457067" lon="9.5827283"><ele>514.0</ele><time>2026-04-05T13:31:27.188Z</time></trkpt><trkpt lat="44.8456267" lon="9.5828233"><ele>515.6</ele><time>2026-04-05T13:31:28.188Z</time></trkpt><trkpt lat="44.8455467" lon="9.58294"><ele>517.2</ele><time>2026-04-05T13:31:29.188Z</time></trkpt><trkpt lat="44.8454633" lon="9.58306"><ele>518.8000000000001</ele><time>2026-04-05T13:31:30.189Z</time></trkpt><trkpt lat="44.845385" lon="9.5831683"><ele>520.4</ele><time>2026-04-05T13:31:31.189Z</time></trkpt><trkpt lat="44.845315" lon="9.5832617"><ele>522.0</ele><time>2026-04-05T13:31:32.189Z</time></trkpt><trkpt lat="44.84525" lon="9.5833483"><ele>522.0</ele><time>2026-04-05T13:31:33.188Z</time></trkpt><trkpt lat="44.8451833" lon="9.5834367"><ele>522.0</ele><time>2026-04-05T13:31:34.188Z</time></trkpt><trkpt lat="44.8451133" lon="9.58352"><ele>522.0</ele><time>2026-04-05T13:31:35.188Z</time></trkpt><trkpt lat="44.84505" lon="9.5836"><ele>522.0</ele><time>2026-04-05T13:31:36.188Z</time></trkpt><trkpt lat="44.8449967" lon="9.5836667"><ele>522.0</ele><time>2026-04-05T13:31:37.188Z</time></trkpt><trkpt lat="44.8449383" lon="9.5837633"><ele>522.0</ele><time>2026-04-05T13:31:39.189Z</time></trkpt><trkpt lat="44.8450117" lon="9.5838117"><ele>521.0</ele><time>2026-04-05T13:31:43.189Z</time></trkpt><trkpt lat="44.84514" lon="9.58379"><ele>520.0</ele><time>2026-04-05T13:31:45.188Z</time></trkpt><trkpt lat="44.84523" lon="9.5837783"><ele>519.0</ele><time>2026-04-05T13:31:46.188Z</time></trkpt><trkpt lat="44.845315" lon="9.5837617"><ele>518.0</ele><time>2026-04-05T13:31:47.188Z</time></trkpt><trkpt lat="44.845395" lon="9.58374"><ele>517.0</ele><time>2026-04-05T13:31:48.188Z</time></trkpt><trkpt lat="44.845475" lon="9.583715"><ele>517.0</ele><time>2026-04-05T13:31:49.188Z</time></trkpt><trkpt lat="44.8455567" lon="9.5836817"><ele>517.0</ele><time>2026-04-05T13:31:50.188Z</time></trkpt><trkpt lat="44.84564" lon="9.583645"><ele>517.0</ele><time>2026-04-05T13:31:51.189Z</time></trkpt><trkpt lat="44.84572" lon="9.5836017"><ele>517.0</ele><time>2026-04-05T13:31:52.189Z</time></trkpt><trkpt lat="44.845785" lon="9.5835567"><ele>517.0</ele><time>2026-04-05T13:31:53.188Z</time></trkpt><trkpt lat="44.8458517" lon="9.5835133"><ele>517.0</ele><time>2026-04-05T13:31:54.188Z</time></trkpt><trkpt lat="44.8459217" lon="9.5834767"><ele>518.4</ele><time>2026-04-05T13:31:55.188Z</time></trkpt><trkpt lat="44.8459867" lon="9.5834417"><ele>519.8000000000001</ele><time>2026-04-05T13:31:56.189Z</time></trkpt><trkpt lat="44.846085" lon="9.5833733"><ele>521.2</ele><time>2026-04-05T13:31:58.188Z</time></trkpt><trkpt lat="44.846185" lon="9.5833183"><ele>522.6</ele><time>2026-04-05T13:32:00.189Z</time></trkpt><trkpt lat="44.846275" lon="9.5832917"><ele>524.0</ele><time>2026-04-05T13:32:02.189Z</time></trkpt><trkpt lat="44.8463517" lon="9.583365"><ele>524.0</ele><time>2026-04-05T13:32:05.189Z</time></trkpt><trkpt lat="44.8464233" lon="9.5834817"><ele>524.0</ele><time>2026-04-05T13:32:07.189Z</time></trkpt><trkpt lat="44.8464983" lon="9.5835983"><ele>524.0</ele><time>2026-04-05T13:32:09.191Z</time></trkpt><trkpt lat="44.846555" lon="9.58366"><ele>524.0</ele><time>2026-04-05T13:32:10.191Z</time></trkpt><trkpt lat="44.8466167" lon="9.5837233"><ele>524.0</ele><time>2026-04-05T13:32:11.189Z</time></trkpt><trkpt lat="44.8466783" lon="9.58379"><ele>524.0</ele><time>2026-04-05T13:32:12.189Z</time></trkpt><trkpt lat="44.8467367" lon="9.58385"><ele>524.3333333333333</ele><time>2026-04-05T13:32:13.189Z</time></trkpt><trkpt lat="44.8467933" lon="9.5839083"><ele>524.6666666666666</ele><time>2026-04-05T13:32:14.189Z</time></trkpt><trkpt lat="44.8468467" lon="9.58397"><ele>525.0</ele><time>2026-04-05T13:32:15.188Z</time></trkpt><trkpt lat="44.8468967" lon="9.5840317"><ele>525.3333333333334</ele><time>2026-04-05T13:32:16.188Z</time></trkpt><trkpt lat="44.84699" lon="9.5841383"><ele>525.6666666666667</ele><time>2026-04-05T13:32:18.188Z</time></trkpt><trkpt lat="44.847065" lon="9.58422"><ele>526.0</ele><time>2026-04-05T13:32:20.189Z</time></trkpt><trkpt lat="44.84712" lon="9.58427"><ele>526.0</ele><time>2026-04-05T13:32:22.188Z</time></trkpt><trkpt lat="44.847195" lon="9.5843733"><ele>526.0</ele><time>2026-04-05T13:32:29.189Z</time></trkpt><trkpt lat="44.8472533" lon="9.5844383"><ele>526.0</ele><time>2026-04-05T13:32:30.19Z</time></trkpt><trkpt lat="44.8473033" lon="9.584495"><ele>526.0</ele><time>2026-04-05T13:32:31.189Z</time></trkpt><trkpt lat="44.8474033" lon="9.58459"><ele>526.0</ele><time>2026-04-05T13:32:33.19Z</time></trkpt><trkpt lat="44.8474617" lon="9.5846267"><ele>526.0</ele><time>2026-04-05T13:32:34.189Z</time></trkpt><trkpt lat="44.847525" lon="9.58466"><ele>525.6666666666667</ele><time>2026-04-05T13:32:35.189Z</time></trkpt><trkpt lat="44.8476433" lon="9.5847267"><ele>525.3333333333334</ele><time>2026-04-05T13:32:37.191Z</time></trkpt><trkpt lat="44.847705" lon="9.58477"><ele>525.0</ele><time>2026-04-05T13:32:38.19Z</time></trkpt><trkpt lat="44.84777" lon="9.5848117"><ele>524.6666666666666</ele><time>2026-04-05T13:32:39.191Z</time></trkpt><trkpt lat="44.84784" lon="9.5848583"><ele>524.3333333333333</ele><time>2026-04-05T13:32:40.19Z</time></trkpt><trkpt lat="44.8479033" lon="9.5848967"><ele>524.0</ele><time>2026-04-05T13:32:41.19Z</time></trkpt><trkpt lat="44.8479983" lon="9.5849617"><ele>524.0</ele><time>2026-04-05T13:32:43.189Z</time></trkpt><trkpt lat="44.848105" lon="9.5850267"><ele>524.0</ele><time>2026-04-05T13:32:45.188Z</time></trkpt><trkpt lat="44.84817" lon="9.5850367"><ele>524.0</ele><time>2026-04-05T13:32:46.19Z</time></trkpt><trkpt lat="44.8482433" lon="9.5850467"><ele>524.0</ele><time>2026-04-05T13:32:47.188Z</time></trkpt><trkpt lat="44.8483167" lon="9.58506"><ele>524.0</ele><time>2026-04-05T13:32:48.189Z</time></trkpt><trkpt lat="44.8483867" lon="9.5850783"><ele>524.0</ele><time>2026-04-05T13:32:49.189Z</time></trkpt><trkpt lat="44.8484567" lon="9.5850983"><ele>525.5</ele><time>2026-04-05T13:32:50.189Z</time></trkpt><trkpt lat="44.84853" lon="9.5851267"><ele>527.0</ele><time>2026-04-05T13:32:51.188Z</time></trkpt><trkpt lat="44.8486033" lon="9.5851633"><ele>528.5</ele><time>2026-04-05T13:32:52.188Z</time></trkpt><trkpt lat="44.84867" lon="9.5851933"><ele>530.0</ele><time>2026-04-05T13:32:53.188Z</time></trkpt><trkpt lat="44.8487817" lon="9.5852067"><ele>531.5</ele><time>2026-04-05T13:32:55.188Z</time></trkpt><trkpt lat="44.8488483" lon="9.5851917"><ele>533.0</ele><time>2026-04-05T13:32:56.189Z</time></trkpt><trkpt lat="44.8489367" lon="9.5851783"><ele>533.0</ele><time>2026-04-05T13:32:57.189Z</time></trkpt><trkpt lat="44.8490183" lon="9.5851717"><ele>533.0</ele><time>2026-04-05T13:32:58.188Z</time></trkpt><trkpt lat="44.8490933" lon="9.585175"><ele>533.0</ele><time>2026-04-05T13:32:59.188Z</time></trkpt><trkpt lat="44.8491683" lon="9.5851833"><ele>533.0</ele><time>2026-04-05T13:33:00.188Z</time></trkpt><trkpt lat="44.8492433" lon="9.585195"><ele>533.0</ele><time>2026-04-05T13:33:01.189Z</time></trkpt><trkpt lat="44.8493167" lon="9.585205"><ele>533.0</ele><time>2026-04-05T13:33:02.189Z</time></trkpt><trkpt lat="44.849385" lon="9.5852033"><ele>533.0</ele><time>2026-04-05T13:33:03.19Z</time></trkpt><trkpt lat="44.8494483" lon="9.5851983"><ele>532.4</ele><time>2026-04-05T13:33:04.189Z</time></trkpt><trkpt lat="44.8495517" lon="9.585215"><ele>531.8</ele><time>2026-04-05T13:33:06.189Z</time></trkpt><trkpt lat="44.84966" lon="9.5852783"><ele>531.2</ele><time>2026-04-05T13:33:08.19Z</time></trkpt><trkpt lat="44.8497133" lon="9.5853283"><ele>530.6</ele><time>2026-04-05T13:33:09.19Z</time></trkpt><trkpt lat="44.8497617" lon="9.5853883"><ele>530.0</ele><time>2026-04-05T13:33:10.189Z</time></trkpt><trkpt lat="44.8498517" lon="9.58548"><ele>530.0</ele><time>2026-04-05T13:33:12.188Z</time></trkpt><trkpt lat="44.8499583" lon="9.5855167"><ele>530.0</ele><time>2026-04-05T13:33:14.19Z</time></trkpt><trkpt lat="44.850055" lon="9.5855417"><ele>530.0</ele><time>2026-04-05T13:33:16.189Z</time></trkpt><trkpt lat="44.85014" lon="9.5856367"><ele>530.0</ele><time>2026-04-05T13:33:18.189Z</time></trkpt><trkpt lat="44.8501817" lon="9.58571"><ele>530.0</ele><time>2026-04-05T13:33:19.189Z</time></trkpt><trkpt lat="44.8502183" lon="9.5858067"><ele>531.3333333333333</ele><time>2026-04-05T13:33:20.19Z</time></trkpt><trkpt lat="44.85025" lon="9.5859117"><ele>532.6666666666666</ele><time>2026-04-05T13:33:21.189Z</time></trkpt><trkpt lat="44.8502883" lon="9.5860167"><ele>534.0</ele><time>2026-04-05T13:33:22.188Z</time></trkpt><trkpt lat="44.85033" lon="9.5861167"><ele>535.3333333333334</ele><time>2026-04-05T13:33:23.191Z</time></trkpt><trkpt lat="44.8503783" lon="9.5862133"><ele>536.6666666666667</ele><time>2026-04-05T13:33:24.189Z</time></trkpt><trkpt lat="44.8504233" lon="9.586305"><ele>538.0</ele><time>2026-04-05T13:33:25.188Z</time></trkpt><trkpt lat="44.850465" lon="9.58638"><ele>538.0</ele><time>2026-04-05T13:33:26.189Z</time></trkpt><trkpt lat="44.8505617" lon="9.5864917"><ele>538.0</ele><time>2026-04-05T13:33:28.188Z</time></trkpt><trkpt lat="44.8506217" lon="9.5865367"><ele>538.0</ele><time>2026-04-05T13:33:29.19Z</time></trkpt><trkpt lat="44.8506833" lon="9.58657"><ele>538.0</ele><time>2026-04-05T13:33:30.19Z</time></trkpt><trkpt lat="44.850745" lon="9.5865933"><ele>538.0</ele><time>2026-04-05T13:33:31.189Z</time></trkpt><trkpt lat="44.8508483" lon="9.586625"><ele>538.0</ele><time>2026-04-05T13:33:33.189Z</time></trkpt><trkpt lat="44.85091" lon="9.5866817"><ele>538.0</ele><time>2026-04-05T13:33:35.188Z</time></trkpt><trkpt lat="44.8509467" lon="9.5867617"><ele>538.0</ele><time>2026-04-05T13:33:37.19Z</time></trkpt><trkpt lat="44.850975" lon="9.586885"><ele>538.0</ele><time>2026-04-05T13:33:40.189Z</time></trkpt><trkpt lat="44.8509883" lon="9.587055"><ele>538.0</ele><time>2026-04-05T13:33:44.189Z</time></trkpt><trkpt lat="44.8509917" lon="9.5871617"><ele>538.0</ele><time>2026-04-05T13:33:46.188Z</time></trkpt><trkpt lat="44.8509967" lon="9.5873017"><ele>534.8</ele><time>2026-04-05T13:33:48.188Z</time></trkpt><trkpt lat="44.8509933" lon="9.5874467"><ele>531.5999999999999</ele><time>2026-04-05T13:33:50.188Z</time></trkpt><trkpt lat="44.85099" lon="9.5876117"><ele>528.4000000000001</ele><time>2026-04-05T13:33:52.188Z</time></trkpt><trkpt lat="44.851" lon="9.5877867"><ele>525.2</ele><time>2026-04-05T13:33:54.189Z</time></trkpt><trkpt lat="44.8510083" lon="9.58788"><ele>522.0</ele><time>2026-04-05T13:33:55.188Z</time></trkpt><trkpt lat="44.8510167" lon="9.58797"><ele>520.3333333333334</ele><time>2026-04-05T13:33:56.188Z</time></trkpt><trkpt lat="44.8510167" lon="9.58806"><ele>518.6666666666666</ele><time>2026-04-05T13:33:57.187Z</time></trkpt><trkpt lat="44.851025" lon="9.588225"><ele>517.0</ele><time>2026-04-05T13:33:59.188Z</time></trkpt><trkpt lat="44.85104" lon="9.5883417"><ele>515.3333333333333</ele><time>2026-04-05T13:34:01.188Z</time></trkpt><trkpt lat="44.8510833" lon="9.5884317"><ele>513.6666666666666</ele><time>2026-04-05T13:34:04.187Z</time></trkpt><trkpt lat="44.8511533" lon="9.5884767"><ele>512.0</ele><time>2026-04-05T13:34:09.188Z</time></trkpt><trkpt lat="44.8512183" lon="9.5885383"><ele>511.99999999999994</ele><time>2026-04-05T13:34:12.189Z</time></trkpt><trkpt lat="44.8512583" lon="9.5886717"><ele>512.0</ele><time>2026-04-05T13:37:11.188Z</time></trkpt><trkpt lat="44.85125" lon="9.588785"><ele>512.0</ele><time>2026-04-05T13:37:14.189Z</time></trkpt><trkpt lat="44.8512467" lon="9.588875"><ele>512.0</ele><time>2026-04-05T13:37:16.188Z</time></trkpt><trkpt lat="44.8512367" lon="9.5889833"><ele>511.99999999999994</ele><time>2026-04-05T13:37:18.189Z</time></trkpt><trkpt lat="44.8512217" lon="9.5890967"><ele>512.0</ele><time>2026-04-05T13:37:20.189Z</time></trkpt><trkpt lat="44.8512017" lon="9.5892"><ele>510.4285714285714</ele><time>2026-04-05T13:37:22.191Z</time></trkpt><trkpt lat="44.85117" lon="9.5892883"><ele>508.8571428571428</ele><time>2026-04-05T13:37:24.189Z</time></trkpt><trkpt lat="44.8511333" lon="9.5893833"><ele>507.2857142857143</ele><time>2026-04-05T13:37:26.189Z</time></trkpt><trkpt lat="44.8511167" lon="9.5894717"><ele>505.71428571428567</ele><time>2026-04-05T13:37:28.188Z</time></trkpt><trkpt lat="44.8511067" lon="9.58956"><ele>504.1428571428571</ele><time>2026-04-05T13:37:30.189Z</time></trkpt><trkpt lat="44.85109" lon="9.5896533"><ele>502.57142857142856</ele><time>2026-04-05T13:37:32.189Z</time></trkpt><trkpt lat="44.851075" lon="9.589785"><ele>501.0</ele><time>2026-04-05T13:37:35.19Z</time></trkpt><trkpt lat="44.85107" lon="9.589875"><ele>498.6</ele><time>2026-04-05T13:37:37.192Z</time></trkpt><trkpt lat="44.851065" lon="9.5900033"><ele>496.20000000000005</ele><time>2026-04-05T13:37:39.19Z</time></trkpt><trkpt lat="44.8510617" lon="9.5901483"><ele>493.79999999999995</ele><time>2026-04-05T13:37:41.189Z</time></trkpt><trkpt lat="44.85106" lon="9.5902883"><ele>491.4</ele><time>2026-04-05T13:37:43.189Z</time></trkpt><trkpt lat="44.8510483" lon="9.59042"><ele>489.0</ele><time>2026-04-05T13:37:45.188Z</time></trkpt><trkpt lat="44.8510267" lon="9.590525"><ele>489.14285714285717</ele><time>2026-04-05T13:37:47.188Z</time></trkpt><trkpt lat="44.8510067" lon="9.5906117"><ele>489.28571428571433</ele><time>2026-04-05T13:37:49.188Z</time></trkpt><trkpt lat="44.8509717" lon="9.5907033"><ele>489.42857142857144</ele><time>2026-04-05T13:37:51.19Z</time></trkpt><trkpt lat="44.8509183" lon="9.590835"><ele>489.57142857142856</ele><time>2026-04-05T13:37:53.19Z</time></trkpt><trkpt lat="44.8508867" lon="9.5909183"><ele>489.7142857142857</ele><time>2026-04-05T13:37:54.19Z</time></trkpt><trkpt lat="44.8508533" lon="9.5909983"><ele>489.8571428571429</ele><time>2026-04-05T13:37:55.19Z</time></trkpt><trkpt lat="44.8508167" lon="9.5910717"><ele>490.0</ele><time>2026-04-05T13:37:56.19Z</time></trkpt><trkpt lat="44.8507617" lon="9.59122"><ele>490.0</ele><time>2026-04-05T13:37:58.19Z</time></trkpt><trkpt lat="44.8507233" lon="9.59139"><ele>490.0</ele><time>2026-04-05T13:38:00.19Z</time></trkpt><trkpt lat="44.85071" lon="9.591485"><ele>490.0</ele><time>2026-04-05T13:38:01.19Z</time></trkpt><trkpt lat="44.8506867" lon="9.5916467"><ele>490.0</ele><time>2026-04-05T13:38:03.191Z</time></trkpt><trkpt lat="44.8506317" lon="9.5917917"><ele>490.0</ele><time>2026-04-05T13:38:05.191Z</time></trkpt><trkpt lat="44.8505867" lon="9.5919583"><ele>488.33333333333337</ele><time>2026-04-05T13:38:07.192Z</time></trkpt><trkpt lat="44.8505567" lon="9.59206"><ele>486.6666666666667</ele><time>2026-04-05T13:38:08.19Z</time></trkpt><trkpt lat="44.85053" lon="9.5921733"><ele>485.0</ele><time>2026-04-05T13:38:09.19Z</time></trkpt><trkpt lat="44.8505083" lon="9.5922933"><ele>483.33333333333337</ele><time>2026-04-05T13:38:10.19Z</time></trkpt><trkpt lat="44.850485" lon="9.5924"><ele>481.6666666666667</ele><time>2026-04-05T13:38:11.191Z</time></trkpt><trkpt lat="44.8504717" lon="9.592505"><ele>480.0</ele><time>2026-04-05T13:38:12.19Z</time></trkpt><trkpt lat="44.850455" lon="9.592675"><ele>480.0</ele><time>2026-04-05T13:38:14.191Z</time></trkpt><trkpt lat="44.8504483" lon="9.59277"><ele>480.0</ele><time>2026-04-05T13:38:15.191Z</time></trkpt><trkpt lat="44.8504417" lon="9.5928667"><ele>480.0</ele><time>2026-04-05T13:38:16.19Z</time></trkpt><trkpt lat="44.8504267" lon="9.5929583"><ele>480.0</ele><time>2026-04-05T13:38:17.19Z</time></trkpt><trkpt lat="44.85041" lon="9.5931183"><ele>480.0</ele><time>2026-04-05T13:38:19.19Z</time></trkpt><trkpt lat="44.850415" lon="9.5932617"><ele>480.0</ele><time>2026-04-05T13:38:21.19Z</time></trkpt><trkpt lat="44.8504183" lon="9.5934017"><ele>479.1666666666667</ele><time>2026-04-05T13:38:23.189Z</time></trkpt><trkpt lat="44.8504183" lon="9.59352"><ele>478.33333333333337</ele><time>2026-04-05T13:38:25.189Z</time></trkpt><trkpt lat="44.8503967" lon="9.5936217"><ele>477.5</ele><time>2026-04-05T13:38:27.189Z</time></trkpt><trkpt lat="44.8503583" lon="9.5937317"><ele>476.6666666666667</ele><time>2026-04-05T13:38:29.189Z</time></trkpt><trkpt lat="44.850325" lon="9.5938317"><ele>475.83333333333337</ele><time>2026-04-05T13:38:31.189Z</time></trkpt><trkpt lat="44.8502983" lon="9.5939367"><ele>475.0</ele><time>2026-04-05T13:38:33.189Z</time></trkpt><trkpt lat="44.8502867" lon="9.5940417"><ele>473.0</ele><time>2026-04-05T13:38:35.19Z</time></trkpt><trkpt lat="44.8502933" lon="9.5941633"><ele>471.0</ele><time>2026-04-05T13:38:37.195Z</time></trkpt><trkpt lat="44.85032" lon="9.594325"><ele>469.0</ele><time>2026-04-05T13:38:39.19Z</time></trkpt><trkpt lat="44.8503333" lon="9.5944167"><ele>467.0</ele><time>2026-04-05T13:38:40.19Z</time></trkpt><trkpt lat="44.8503383" lon="9.5945983"><ele>465.0</ele><time>2026-04-05T13:38:42.189Z</time></trkpt><trkpt lat="44.850335" lon="9.5946917"><ele>463.3333333333333</ele><time>2026-04-05T13:38:43.188Z</time></trkpt><trkpt lat="44.8503283" lon="9.5947833"><ele>461.66666666666663</ele><time>2026-04-05T13:38:44.19Z</time></trkpt><trkpt lat="44.8503317" lon="9.5949383"><ele>460.0</ele><time>2026-04-05T13:38:46.189Z</time></trkpt><trkpt lat="44.8503417" lon="9.595055"><ele>458.3333333333333</ele><time>2026-04-05T13:38:48.189Z</time></trkpt><trkpt lat="44.8503517" lon="9.5951517"><ele>456.66666666666663</ele><time>2026-04-05T13:38:51.189Z</time></trkpt><trkpt lat="44.8503533" lon="9.5952467"><ele>455.0</ele><time>2026-04-05T13:40:21.19Z</time></trkpt><trkpt lat="44.8503867" lon="9.5953267"><ele>455.0</ele><time>2026-04-05T13:40:23.191Z</time></trkpt><trkpt lat="44.8504667" lon="9.5953283"><ele>455.0</ele><time>2026-04-05T13:40:25.19Z</time></trkpt><trkpt lat="44.8505833" lon="9.5952767"><ele>455.0</ele><time>2026-04-05T13:40:27.19Z</time></trkpt><trkpt lat="44.8506767" lon="9.5952433"><ele>455.0</ele><time>2026-04-05T13:40:29.188Z</time></trkpt><trkpt lat="44.85075" lon="9.5951683"><ele>455.0</ele><time>2026-04-05T13:40:31.188Z</time></trkpt><trkpt lat="44.85084" lon="9.59504"><ele>454.99999999999994</ele><time>2026-04-05T13:40:33.187Z</time></trkpt><trkpt lat="44.8508917" lon="9.5949767"><ele>455.0</ele><time>2026-04-05T13:40:34.188Z</time></trkpt><trkpt lat="44.8509467" lon="9.5949267"><ele>455.0</ele><time>2026-04-05T13:40:35.188Z</time></trkpt><trkpt lat="44.851025" lon="9.5948567"><ele>455.0</ele><time>2026-04-05T13:40:37.188Z</time></trkpt><trkpt lat="44.8510767" lon="9.5947967"><ele>454.99999999999994</ele><time>2026-04-05T13:40:40.187Z</time></trkpt><trkpt lat="44.8511283" lon="9.5946583"><ele>455.0</ele><time>2026-04-05T13:40:43.188Z</time></trkpt><trkpt lat="44.85117" lon="9.594515"><ele>452.3333333333333</ele><time>2026-04-05T13:40:45.188Z</time></trkpt><trkpt lat="44.8511633" lon="9.5943917"><ele>449.66666666666663</ele><time>2026-04-05T13:40:47.189Z</time></trkpt><trkpt lat="44.851115" lon="9.5942383"><ele>447.0</ele><time>2026-04-05T13:40:49.19Z</time></trkpt><trkpt lat="44.851095" lon="9.5941433"><ele>444.33333333333337</ele><time>2026-04-05T13:40:50.19Z</time></trkpt><trkpt lat="44.8510883" lon="9.594045"><ele>441.6666666666667</ele><time>2026-04-05T13:40:51.19Z</time></trkpt><trkpt lat="44.8511033" lon="9.593935"><ele>439.0</ele><time>2026-04-05T13:40:52.19Z</time></trkpt><trkpt lat="44.8511267" lon="9.5938233"><ele>439.00000000000006</ele><time>2026-04-05T13:40:53.19Z</time></trkpt><trkpt lat="44.851145" lon="9.59372"><ele>439.0</ele><time>2026-04-05T13:40:54.19Z</time></trkpt><trkpt lat="44.85116" lon="9.5936217"><ele>439.0</ele><time>2026-04-05T13:40:55.191Z</time></trkpt><trkpt lat="44.8511833" lon="9.593515"><ele>439.0</ele><time>2026-04-05T13:40:56.191Z</time></trkpt><trkpt lat="44.8512183" lon="9.5934133"><ele>439.00000000000006</ele><time>2026-04-05T13:40:57.189Z</time></trkpt><trkpt lat="44.851265" lon="9.593325"><ele>439.0</ele><time>2026-04-05T13:40:58.189Z</time></trkpt><trkpt lat="44.8513217" lon="9.5932367"><ele>439.83333333333337</ele><time>2026-04-05T13:40:59.19Z</time></trkpt><trkpt lat="44.8513733" lon="9.59315"><ele>440.6666666666667</ele><time>2026-04-05T13:41:00.19Z</time></trkpt><trkpt lat="44.8514217" lon="9.5930617"><ele>441.5</ele><time>2026-04-05T13:41:01.189Z</time></trkpt><trkpt lat="44.8514717" lon="9.5929733"><ele>442.33333333333337</ele><time>2026-04-05T13:41:02.189Z</time></trkpt><trkpt lat="44.851525" lon="9.59287"><ele>443.1666666666667</ele><time>2026-04-05T13:41:03.19Z</time></trkpt><trkpt lat="44.851575" lon="9.592765"><ele>444.0</ele><time>2026-04-05T13:41:04.187Z</time></trkpt><trkpt lat="44.8516217" lon="9.5926717"><ele>443.8333333333333</ele><time>2026-04-05T13:41:05.189Z</time></trkpt><trkpt lat="44.8516683" lon="9.5925867"><ele>443.66666666666663</ele><time>2026-04-05T13:41:06.188Z</time></trkpt><trkpt lat="44.8517067" lon="9.5925133"><ele>443.5</ele><time>2026-04-05T13:41:07.188Z</time></trkpt><trkpt lat="44.851785" lon="9.592375"><ele>443.3333333333333</ele><time>2026-04-05T13:41:09.188Z</time></trkpt><trkpt lat="44.8518317" lon="9.5923117"><ele>443.16666666666663</ele><time>2026-04-05T13:41:10.189Z</time></trkpt><trkpt lat="44.85188" lon="9.592245"><ele>443.0</ele><time>2026-04-05T13:41:11.188Z</time></trkpt><trkpt lat="44.8519283" lon="9.5921833"><ele>443.0</ele><time>2026-04-05T13:41:12.188Z</time></trkpt><trkpt lat="44.8520233" lon="9.5920817"><ele>442.99999999999994</ele><time>2026-04-05T13:41:14.19Z</time></trkpt><trkpt lat="44.8521217" lon="9.5920317"><ele>442.99999999999994</ele><time>2026-04-05T13:41:16.189Z</time></trkpt><trkpt lat="44.852235" lon="9.592045"><ele>443.0</ele><time>2026-04-05T13:41:18.19Z</time></trkpt><trkpt lat="44.8523233" lon="9.5920817"><ele>443.0</ele><time>2026-04-05T13:41:19.19Z</time></trkpt><trkpt lat="44.85244" lon="9.59212"><ele>443.0</ele><time>2026-04-05T13:41:20.191Z</time></trkpt><trkpt lat="44.8525517" lon="9.5921467"><ele>442.99999999999994</ele><time>2026-04-05T13:41:21.19Z</time></trkpt><trkpt lat="44.8526583" lon="9.5921667"><ele>442.99999999999994</ele><time>2026-04-05T13:41:22.191Z</time></trkpt><trkpt lat="44.8527617" lon="9.59219"><ele>443.0</ele><time>2026-04-05T13:41:23.191Z</time></trkpt><trkpt lat="44.8528517" lon="9.59222"><ele>443.0</ele><time>2026-04-05T13:41:24.19Z</time></trkpt><trkpt lat="44.85294" lon="9.5922683"><ele>444.0</ele><time>2026-04-05T13:41:25.188Z</time></trkpt><trkpt lat="44.8530433" lon="9.5923433"><ele>444.99999999999994</ele><time>2026-04-05T13:41:26.188Z</time></trkpt><trkpt lat="44.853145" lon="9.5924217"><ele>445.99999999999994</ele><time>2026-04-05T13:41:27.189Z</time></trkpt><trkpt lat="44.85323" lon="9.5924867"><ele>447.0</ele><time>2026-04-05T13:41:28.189Z</time></trkpt><trkpt lat="44.8533033" lon="9.5925333"><ele>448.0</ele><time>2026-04-05T13:41:29.188Z</time></trkpt><trkpt lat="44.853385" lon="9.5925683"><ele>448.4</ele><time>2026-04-05T13:41:30.188Z</time></trkpt><trkpt lat="44.85348" lon="9.592585"><ele>448.79999999999995</ele><time>2026-04-05T13:41:31.188Z</time></trkpt><trkpt lat="44.8535783" lon="9.5925883"><ele>449.2</ele><time>2026-04-05T13:41:32.189Z</time></trkpt><trkpt lat="44.8536633" lon="9.5925817"><ele>449.6</ele><time>2026-04-05T13:41:33.188Z</time></trkpt><trkpt lat="44.8537317" lon="9.59258"><ele>450.0</ele><time>2026-04-05T13:41:34.188Z</time></trkpt><trkpt lat="44.8538567" lon="9.5926217"><ele>450.0</ele><time>2026-04-05T13:41:36.188Z</time></trkpt><trkpt lat="44.8539317" lon="9.59268"><ele>450.0</ele><time>2026-04-05T13:41:37.188Z</time></trkpt><trkpt lat="44.85401" lon="9.5927483"><ele>450.0</ele><time>2026-04-05T13:41:38.188Z</time></trkpt><trkpt lat="44.8540883" lon="9.5928267"><ele>450.0</ele><time>2026-04-05T13:41:39.189Z</time></trkpt><trkpt lat="44.8541733" lon="9.5928933"><ele>450.0</ele><time>2026-04-05T13:41:40.188Z</time></trkpt><trkpt lat="44.8542633" lon="9.5929433"><ele>449.8</ele><time>2026-04-05T13:41:41.188Z</time></trkpt><trkpt lat="44.8543717" lon="9.5929867"><ele>449.6</ele><time>2026-04-05T13:41:42.193Z</time></trkpt><trkpt lat="44.8544817" lon="9.5930217"><ele>449.4</ele><time>2026-04-05T13:41:43.188Z</time></trkpt><trkpt lat="44.854588" lon="9.5930487"><ele>449.2</ele><time>2026-04-05T13:41:44.19Z</time></trkpt><trkpt lat="44.8546952" lon="9.5930613"><ele>449.0</ele><time>2026-04-05T13:41:45.188Z</time></trkpt><trkpt lat="44.8547989" lon="9.5930698"><ele>449.0</ele><time>2026-04-05T13:41:46.188Z</time></trkpt><trkpt lat="44.8548956" lon="9.5930789"><ele>449.0</ele><time>2026-04-05T13:41:47.189Z</time></trkpt><trkpt lat="44.854988" lon="9.5931011"><ele>449.0</ele><time>2026-04-05T13:41:48.188Z</time></trkpt><trkpt lat="44.8550819" lon="9.5931438"><ele>449.0</ele><time>2026-04-05T13:41:49.189Z</time></trkpt><trkpt lat="44.8551821" lon="9.5932089"><ele>449.0</ele><time>2026-04-05T13:41:50.189Z</time></trkpt><trkpt lat="44.8552819" lon="9.5932874"><ele>448.6</ele><time>2026-04-05T13:41:51.197Z</time></trkpt><trkpt lat="44.8553678" lon="9.5933735"><ele>448.2</ele><time>2026-04-05T13:41:52.19Z</time></trkpt><trkpt lat="44.8554429" lon="9.5934665"><ele>447.80000000000007</ele><time>2026-04-05T13:41:53.189Z</time></trkpt><trkpt lat="44.8555143" lon="9.5935724"><ele>447.40000000000003</ele><time>2026-04-05T13:41:54.188Z</time></trkpt><trkpt lat="44.8555868" lon="9.593696"><ele>447.0</ele><time>2026-04-05T13:41:55.188Z</time></trkpt><trkpt lat="44.8556614" lon="9.5938193"><ele>447.0</ele><time>2026-04-05T13:41:56.189Z</time></trkpt><trkpt lat="44.8557413" lon="9.5939299"><ele>447.0</ele><time>2026-04-05T13:41:57.189Z</time></trkpt><trkpt lat="44.8558325" lon="9.5940411"><ele>447.0</ele><time>2026-04-05T13:41:58.188Z</time></trkpt><trkpt lat="44.8559313" lon="9.5941569"><ele>447.0</ele><time>2026-04-05T13:41:59.188Z</time></trkpt><trkpt lat="44.8560253" lon="9.5942685"><ele>448.0</ele><time>2026-04-05T13:42:00.188Z</time></trkpt><trkpt lat="44.8561095" lon="9.5943668"><ele>449.00000000000006</ele><time>2026-04-05T13:42:01.188Z</time></trkpt><trkpt lat="44.8561876" lon="9.5944549"><ele>450.00000000000006</ele><time>2026-04-05T13:42:02.188Z</time></trkpt><trkpt lat="44.8562602" lon="9.5945424"><ele>451.0</ele><time>2026-04-05T13:42:03.188Z</time></trkpt><trkpt lat="44.8563284" lon="9.5946404"><ele>452.0</ele><time>2026-04-05T13:42:04.188Z</time></trkpt><trkpt lat="44.8563887" lon="9.5947392"><ele>451.99999999999994</ele><time>2026-04-05T13:42:05.188Z</time></trkpt><trkpt lat="44.8564366" lon="9.5948185"><ele>452.0</ele><time>2026-04-05T13:42:06.188Z</time></trkpt><trkpt lat="44.8564951" lon="9.5949572"><ele>452.0</ele><time>2026-04-05T13:42:08.189Z</time></trkpt><trkpt lat="44.8565128" lon="9.5950436"><ele>452.0</ele><time>2026-04-05T13:42:09.189Z</time></trkpt><trkpt lat="44.856532" lon="9.5951596"><ele>451.99999999999994</ele><time>2026-04-05T13:42:10.188Z</time></trkpt><trkpt lat="44.8565566" lon="9.5953014"><ele>452.0</ele><time>2026-04-05T13:42:11.188Z</time></trkpt><trkpt lat="44.8565894" lon="9.5954526"><ele>452.6</ele><time>2026-04-05T13:42:12.188Z</time></trkpt><trkpt lat="44.8566275" lon="9.5956063"><ele>453.20000000000005</ele><time>2026-04-05T13:42:13.189Z</time></trkpt><trkpt lat="44.85667" lon="9.5957551"><ele>453.8</ele><time>2026-04-05T13:42:14.189Z</time></trkpt><trkpt lat="44.8567167" lon="9.5958989"><ele>454.4</ele><time>2026-04-05T13:42:15.188Z</time></trkpt><trkpt lat="44.8567635" lon="9.5960323"><ele>455.0</ele><time>2026-04-05T13:42:16.188Z</time></trkpt><trkpt lat="44.8568051" lon="9.596156"><ele>451.8</ele><time>2026-04-05T13:42:17.188Z</time></trkpt><trkpt lat="44.8568447" lon="9.5962694"><ele>448.6</ele><time>2026-04-05T13:42:18.192Z</time></trkpt><trkpt lat="44.8568883" lon="9.5963783"><ele>445.4</ele><time>2026-04-05T13:42:19.188Z</time></trkpt><trkpt lat="44.8569479" lon="9.5964947"><ele>442.2</ele><time>2026-04-05T13:42:20.188Z</time></trkpt><trkpt lat="44.8570153" lon="9.5966153"><ele>439.0</ele><time>2026-04-05T13:42:21.188Z</time></trkpt><trkpt lat="44.8570814" lon="9.5967229"><ele>439.00000000000006</ele><time>2026-04-05T13:42:22.188Z</time></trkpt><trkpt lat="44.8571407" lon="9.5968192"><ele>439.0</ele><time>2026-04-05T13:42:23.188Z</time></trkpt><trkpt lat="44.8571888" lon="9.5969212"><ele>439.0</ele><time>2026-04-05T13:42:24.188Z</time></trkpt><trkpt lat="44.8572232" lon="9.5970293"><ele>439.0</ele><time>2026-04-05T13:42:25.188Z</time></trkpt><trkpt lat="44.857244" lon="9.5971391"><ele>439.00000000000006</ele><time>2026-04-05T13:42:26.189Z</time></trkpt><trkpt lat="44.8572535" lon="9.5972556"><ele>439.0</ele><time>2026-04-05T13:42:27.188Z</time></trkpt><trkpt lat="44.8572531" lon="9.5973883"><ele>437.2</ele><time>2026-04-05T13:42:28.188Z</time></trkpt><trkpt lat="44.8572455" lon="9.5975446"><ele>435.4</ele><time>2026-04-05T13:42:29.189Z</time></trkpt><trkpt lat="44.8572366" lon="9.5977043"><ele>433.6</ele><time>2026-04-05T13:42:30.188Z</time></trkpt><trkpt lat="44.8572333" lon="9.5978444"><ele>431.8</ele><time>2026-04-05T13:42:31.188Z</time></trkpt><trkpt lat="44.8572321" lon="9.5979874"><ele>430.0</ele><time>2026-04-05T13:42:32.188Z</time></trkpt><trkpt lat="44.8572284" lon="9.598143"><ele>430.0</ele><time>2026-04-05T13:42:33.188Z</time></trkpt><trkpt lat="44.8572249" lon="9.598302"><ele>430.0</ele><time>2026-04-05T13:42:34.189Z</time></trkpt><trkpt lat="44.8572262" lon="9.5984439"><ele>430.0</ele><time>2026-04-05T13:42:35.189Z</time></trkpt><trkpt lat="44.8572364" lon="9.598561"><ele>430.0</ele><time>2026-04-05T13:42:36.188Z</time></trkpt><trkpt lat="44.8572528" lon="9.5986545"><ele>430.0</ele><time>2026-04-05T13:42:37.189Z</time></trkpt><trkpt lat="44.8572658" lon="9.5987744"><ele>430.0</ele><time>2026-04-05T13:42:39.188Z</time></trkpt><trkpt lat="44.8572502" lon="9.5988777"><ele>430.0</ele><time>2026-04-05T13:42:48.189Z</time></trkpt><trkpt lat="44.8572283" lon="9.5989683"><ele>430.0</ele><time>2026-04-05T13:42:49.188Z</time></trkpt><trkpt lat="44.857185" lon="9.5991033"><ele>430.0</ele><time>2026-04-05T13:42:51.188Z</time></trkpt><trkpt lat="44.8571317" lon="9.5992383"><ele>430.0</ele><time>2026-04-05T13:42:53.188Z</time></trkpt><trkpt lat="44.8570667" lon="9.5993767"><ele>430.0</ele><time>2026-04-05T13:42:55.189Z</time></trkpt><trkpt lat="44.85702" lon="9.5994417"><ele>430.0</ele><time>2026-04-05T13:42:56.189Z</time></trkpt><trkpt lat="44.85697" lon="9.5994983"><ele>430.0</ele><time>2026-04-05T13:42:57.188Z</time></trkpt><trkpt lat="44.8568783" lon="9.599575"><ele>430.0</ele><time>2026-04-05T13:42:59.188Z</time></trkpt><trkpt lat="44.8567817" lon="9.5996383"><ele>430.0</ele><time>2026-04-05T13:43:01.189Z</time></trkpt><trkpt lat="44.8566667" lon="9.5997"><ele>427.57142857142856</ele><time>2026-04-05T13:43:03.188Z</time></trkpt><trkpt lat="44.8566067" lon="9.5997367"><ele>425.14285714285717</ele><time>2026-04-05T13:43:04.188Z</time></trkpt><trkpt lat="44.8565467" lon="9.599775"><ele>422.7142857142857</ele><time>2026-04-05T13:43:05.188Z</time></trkpt><trkpt lat="44.8564867" lon="9.5998083"><ele>420.2857142857143</ele><time>2026-04-05T13:43:06.189Z</time></trkpt><trkpt lat="44.8564267" lon="9.5998467"><ele>417.8571428571429</ele><time>2026-04-05T13:43:07.189Z</time></trkpt><trkpt lat="44.85637" lon="9.59989"><ele>415.42857142857144</ele><time>2026-04-05T13:43:08.189Z</time></trkpt><trkpt lat="44.85631" lon="9.599935"><ele>413.0</ele><time>2026-04-05T13:43:09.188Z</time></trkpt><trkpt lat="44.85625" lon="9.5999783"><ele>412.99999999999994</ele><time>2026-04-05T13:43:10.188Z</time></trkpt><trkpt lat="44.8561783" lon="9.600025"><ele>413.0</ele><time>2026-04-05T13:43:11.189Z</time></trkpt><trkpt lat="44.8561033" lon="9.6000683"><ele>413.0</ele><time>2026-04-05T13:43:12.188Z</time></trkpt><trkpt lat="44.8560233" lon="9.6001067"><ele>413.0</ele><time>2026-04-05T13:43:13.189Z</time></trkpt><trkpt lat="44.8559433" lon="9.6001367"><ele>412.99999999999994</ele><time>2026-04-05T13:43:14.191Z</time></trkpt><trkpt lat="44.8558717" lon="9.6001683"><ele>413.0</ele><time>2026-04-05T13:43:15.189Z</time></trkpt><trkpt lat="44.8558083" lon="9.6002"><ele>410.59999999999997</ele><time>2026-04-05T13:43:16.188Z</time></trkpt><trkpt lat="44.8557033" lon="9.6002567"><ele>408.2</ele><time>2026-04-05T13:43:18.189Z</time></trkpt><trkpt lat="44.855625" lon="9.600295"><ele>405.8</ele><time>2026-04-05T13:43:20.189Z</time></trkpt><trkpt lat="44.8556143" lon="9.6003993"><ele>403.4</ele><time>2026-04-05T13:43:28.188Z</time></trkpt><trkpt lat="44.8557377" lon="9.6005063"><ele>401.0</ele><time>2026-04-05T13:43:30.188Z</time></trkpt><trkpt lat="44.8558257" lon="9.6005765"><ele>402.0</ele><time>2026-04-05T13:43:31.19Z</time></trkpt><trkpt lat="44.8559216" lon="9.600667"><ele>403.0</ele><time>2026-04-05T13:43:32.189Z</time></trkpt><trkpt lat="44.8560093" lon="9.6007699"><ele>404.0</ele><time>2026-04-05T13:43:33.188Z</time></trkpt><trkpt lat="44.8560884" lon="9.600883"><ele>405.0</ele><time>2026-04-05T13:43:34.188Z</time></trkpt><trkpt lat="44.8561624" lon="9.600995"><ele>405.0</ele><time>2026-04-05T13:43:35.19Z</time></trkpt><trkpt lat="44.8562276" lon="9.6010829"><ele>405.0</ele><time>2026-04-05T13:43:36.188Z</time></trkpt><trkpt lat="44.856293" lon="9.6011371"><ele>405.0</ele><time>2026-04-05T13:43:37.188Z</time></trkpt><trkpt lat="44.8563643" lon="9.6011602"><ele>405.0</ele><time>2026-04-05T13:43:38.189Z</time></trkpt><trkpt lat="44.8564529" lon="9.6011521"><ele>405.0</ele><time>2026-04-05T13:43:39.188Z</time></trkpt><trkpt lat="44.8565643" lon="9.6011327"><ele>405.0</ele><time>2026-04-05T13:43:40.188Z</time></trkpt><trkpt lat="44.8566961" lon="9.6011365"><ele>407.5</ele><time>2026-04-05T13:43:41.188Z</time></trkpt><trkpt lat="44.8568229" lon="9.6011611"><ele>410.0</ele><time>2026-04-05T13:43:42.188Z</time></trkpt><trkpt lat="44.8569291" lon="9.6012008"><ele>412.5</ele><time>2026-04-05T13:43:43.191Z</time></trkpt><trkpt lat="44.8570255" lon="9.6012584"><ele>415.0</ele><time>2026-04-05T13:43:44.19Z</time></trkpt><trkpt lat="44.8571136" lon="9.6013444"><ele>415.0</ele><time>2026-04-05T13:43:45.189Z</time></trkpt><trkpt lat="44.8571884" lon="9.6014383"><ele>415.0</ele><time>2026-04-05T13:43:46.189Z</time></trkpt><trkpt lat="44.8572549" lon="9.6015116"><ele>415.0</ele><time>2026-04-05T13:43:47.188Z</time></trkpt><trkpt lat="44.8573198" lon="9.6015569"><ele>415.0</ele><time>2026-04-05T13:43:48.188Z</time></trkpt><trkpt lat="44.8574271" lon="9.6015115"><ele>415.0</ele><time>2026-04-05T13:43:50.189Z</time></trkpt><trkpt lat="44.8574703" lon="9.6013307"><ele>415.0</ele><time>2026-04-05T13:43:52.188Z</time></trkpt><trkpt lat="44.857466" lon="9.6011907"><ele>415.0</ele><time>2026-04-05T13:43:53.189Z</time></trkpt><trkpt lat="44.8574349" lon="9.601023"><ele>415.0</ele><time>2026-04-05T13:43:54.189Z</time></trkpt><trkpt lat="44.8573933" lon="9.6008392"><ele>415.0</ele><time>2026-04-05T13:43:55.189Z</time></trkpt><trkpt lat="44.8573568" lon="9.600659"><ele>415.1666666666667</ele><time>2026-04-05T13:43:56.189Z</time></trkpt><trkpt lat="44.8573337" lon="9.6005026"><ele>415.33333333333337</ele><time>2026-04-05T13:43:57.188Z</time></trkpt><trkpt lat="44.8573305" lon="9.6003834"><ele>415.5</ele><time>2026-04-05T13:43:58.188Z</time></trkpt><trkpt lat="44.8573467" lon="9.6002857"><ele>415.66666666666663</ele><time>2026-04-05T13:43:59.188Z</time></trkpt><trkpt lat="44.8573852" lon="9.6002121"><ele>415.8333333333333</ele><time>2026-04-05T13:44:00.188Z</time></trkpt><trkpt lat="44.8574457" lon="9.6001619"><ele>416.0</ele><time>2026-04-05T13:44:01.189Z</time></trkpt><trkpt lat="44.857537" lon="9.6001612"><ele>417.8</ele><time>2026-04-05T13:44:02.188Z</time></trkpt><trkpt lat="44.8576288" lon="9.6001933"><ele>419.6</ele><time>2026-04-05T13:44:03.188Z</time></trkpt><trkpt lat="44.8577046" lon="9.6002435"><ele>421.4</ele><time>2026-04-05T13:44:04.188Z</time></trkpt><trkpt lat="44.857766" lon="9.600319"><ele>423.2</ele><time>2026-04-05T13:44:05.188Z</time></trkpt><trkpt lat="44.8578195" lon="9.6004566"><ele>425.0</ele><time>2026-04-05T13:44:06.188Z</time></trkpt><trkpt lat="44.857871" lon="9.6006486"><ele>425.0</ele><time>2026-04-05T13:44:07.189Z</time></trkpt><trkpt lat="44.8579195" lon="9.6008877"><ele>425.0</ele><time>2026-04-05T13:44:08.191Z</time></trkpt><trkpt lat="44.8579535" lon="9.6011364"><ele>425.0</ele><time>2026-04-05T13:44:09.191Z</time></trkpt><trkpt lat="44.8579808" lon="9.6013743"><ele>425.5</ele><time>2026-04-05T13:44:10.188Z</time></trkpt><trkpt lat="44.8580137" lon="9.6015882"><ele>426.0</ele><time>2026-04-05T13:44:11.188Z</time></trkpt><trkpt lat="44.8580544" lon="9.6017862"><ele>426.5</ele><time>2026-04-05T13:44:12.188Z</time></trkpt><trkpt lat="44.8581027" lon="9.6019794"><ele>427.0</ele><time>2026-04-05T13:44:13.19Z</time></trkpt><trkpt lat="44.85815" lon="9.6021445"><ele>427.00000000000006</ele><time>2026-04-05T13:44:14.189Z</time></trkpt><trkpt lat="44.8581896" lon="9.602264"><ele>427.0</ele><time>2026-04-05T13:44:15.189Z</time></trkpt><trkpt lat="44.8582267" lon="9.6023478"><ele>427.0</ele><time>2026-04-05T13:44:16.19Z</time></trkpt><trkpt lat="44.8582783" lon="9.6024016"><ele>427.0</ele><time>2026-04-05T13:44:17.189Z</time></trkpt><trkpt lat="44.8583401" lon="9.6024262"><ele>427.00000000000006</ele><time>2026-04-05T13:44:18.188Z</time></trkpt><trkpt lat="44.8584136" lon="9.6023988"><ele>427.0</ele><time>2026-04-05T13:44:19.188Z</time></trkpt><trkpt lat="44.8584909" lon="9.6023315"><ele>429.33333333333337</ele><time>2026-04-05T13:44:20.191Z</time></trkpt><trkpt lat="44.8586018" lon="9.6022256"><ele>431.66666666666663</ele><time>2026-04-05T13:44:21.188Z</time></trkpt><trkpt lat="44.8587533" lon="9.6021017"><ele>434.0</ele><time>2026-04-05T13:44:22.188Z</time></trkpt><trkpt lat="44.858895" lon="9.601995"><ele>436.66666666666663</ele><time>2026-04-05T13:44:23.188Z</time></trkpt><trkpt lat="44.8590283" lon="9.60187"><ele>439.33333333333337</ele><time>2026-04-05T13:44:24.188Z</time></trkpt><trkpt lat="44.8591617" lon="9.6017117"><ele>442.0</ele><time>2026-04-05T13:44:25.189Z</time></trkpt><trkpt lat="44.8592933" lon="9.60156"><ele>446.5</ele><time>2026-04-05T13:44:26.19Z</time></trkpt><trkpt lat="44.8594233" lon="9.6014367"><ele>451.0</ele><time>2026-04-05T13:44:27.188Z</time></trkpt><trkpt lat="44.8595567" lon="9.60134"><ele>455.5</ele><time>2026-04-05T13:44:28.189Z</time></trkpt><trkpt lat="44.85968" lon="9.601265"><ele>460.0</ele><time>2026-04-05T13:44:29.19Z</time></trkpt><trkpt lat="44.859785" lon="9.6012"><ele>459.6666666666667</ele><time>2026-04-05T13:44:30.19Z</time></trkpt><trkpt lat="44.8598733" lon="9.6011417"><ele>459.33333333333337</ele><time>2026-04-05T13:44:31.19Z</time></trkpt><trkpt lat="44.8599417" lon="9.60107"><ele>459.0</ele><time>2026-04-05T13:44:32.19Z</time></trkpt><trkpt lat="44.859985" lon="9.6009917"><ele>458.66666666666663</ele><time>2026-04-05T13:44:33.19Z</time></trkpt><trkpt lat="44.8600067" lon="9.6009017"><ele>458.3333333333333</ele><time>2026-04-05T13:44:34.189Z</time></trkpt><trkpt lat="44.8600167" lon="9.600785"><ele>458.0</ele><time>2026-04-05T13:44:35.19Z</time></trkpt><trkpt lat="44.860015" lon="9.60064"><ele>458.0</ele><time>2026-04-05T13:44:36.19Z</time></trkpt><trkpt lat="44.8599867" lon="9.60045"><ele>458.0</ele><time>2026-04-05T13:44:37.19Z</time></trkpt><trkpt lat="44.859925" lon="9.6002333"><ele>458.0</ele><time>2026-04-05T13:44:38.191Z</time></trkpt><trkpt lat="44.8598333" lon="9.6000033"><ele>459.25</ele><time>2026-04-05T13:44:39.19Z</time></trkpt><trkpt lat="44.859745" lon="9.5998"><ele>460.5</ele><time>2026-04-05T13:44:40.19Z</time></trkpt><trkpt lat="44.8596867" lon="9.5996217"><ele>461.75</ele><time>2026-04-05T13:44:41.189Z</time></trkpt><trkpt lat="44.8596533" lon="9.59945"><ele>463.0</ele><time>2026-04-05T13:44:42.191Z</time></trkpt><trkpt lat="44.859645" lon="9.5992633"><ele>465.25</ele><time>2026-04-05T13:44:43.19Z</time></trkpt><trkpt lat="44.8596683" lon="9.5990783"><ele>467.5</ele><time>2026-04-05T13:44:44.191Z</time></trkpt><trkpt lat="44.8597033" lon="9.59892"><ele>469.75</ele><time>2026-04-05T13:44:45.19Z</time></trkpt><trkpt lat="44.85975" lon="9.598785"><ele>472.0</ele><time>2026-04-05T13:44:46.197Z</time></trkpt><trkpt lat="44.8598317" lon="9.5986617"><ele>472.0</ele><time>2026-04-05T13:44:47.188Z</time></trkpt><trkpt lat="44.8599533" lon="9.598545"><ele>472.0</ele><time>2026-04-05T13:44:48.189Z</time></trkpt><trkpt lat="44.8600933" lon="9.598405"><ele>472.0</ele><time>2026-04-05T13:44:49.188Z</time></trkpt><trkpt lat="44.8602433" lon="9.5982233"><ele>474.0</ele><time>2026-04-05T13:44:50.189Z</time></trkpt><trkpt lat="44.8603933" lon="9.5980133"><ele>476.0</ele><time>2026-04-05T13:44:51.189Z</time></trkpt><trkpt lat="44.8605283" lon="9.5978183"><ele>478.0</ele><time>2026-04-05T13:44:52.188Z</time></trkpt><trkpt lat="44.8606533" lon="9.59765"><ele>478.0</ele><time>2026-04-05T13:44:53.188Z</time></trkpt><trkpt lat="44.86077" lon="9.5975"><ele>478.0</ele><time>2026-04-05T13:44:54.189Z</time></trkpt><trkpt lat="44.8608733" lon="9.597375"><ele>478.0</ele><time>2026-04-05T13:44:55.188Z</time></trkpt><trkpt lat="44.8609567" lon="9.597275"><ele>478.0</ele><time>2026-04-05T13:44:56.19Z</time></trkpt><trkpt lat="44.8610283" lon="9.5971983"><ele>478.33333333333337</ele><time>2026-04-05T13:44:57.188Z</time></trkpt><trkpt lat="44.861095" lon="9.597135"><ele>478.6666666666667</ele><time>2026-04-05T13:44:58.191Z</time></trkpt><trkpt lat="44.8611617" lon="9.5970833"><ele>479.0</ele><time>2026-04-05T13:44:59.19Z</time></trkpt><trkpt lat="44.8612283" lon="9.5970283"><ele>479.33333333333337</ele><time>2026-04-05T13:45:00.188Z</time></trkpt><trkpt lat="44.8613033" lon="9.5969667"><ele>479.6666666666667</ele><time>2026-04-05T13:45:01.188Z</time></trkpt><trkpt lat="44.861385" lon="9.5968933"><ele>480.0</ele><time>2026-04-05T13:45:02.19Z</time></trkpt><trkpt lat="44.8614667" lon="9.5968067"><ele>478.4</ele><time>2026-04-05T13:45:03.188Z</time></trkpt><trkpt lat="44.8615533" lon="9.5967117"><ele>476.8</ele><time>2026-04-05T13:45:04.189Z</time></trkpt><trkpt lat="44.8616467" lon="9.5966133"><ele>475.20000000000005</ele><time>2026-04-05T13:45:05.189Z</time></trkpt><trkpt lat="44.86174" lon="9.5965183"><ele>473.6</ele><time>2026-04-05T13:45:06.188Z</time></trkpt><trkpt lat="44.861825" lon="9.5964317"><ele>472.0</ele><time>2026-04-05T13:45:07.188Z</time></trkpt><trkpt lat="44.8618983" lon="9.5963533"><ele>471.00000000000006</ele><time>2026-04-05T13:45:08.189Z</time></trkpt><trkpt lat="44.861965" lon="9.596285"><ele>470.0</ele><time>2026-04-05T13:45:09.188Z</time></trkpt><trkpt lat="44.8620183" lon="9.596215"><ele>469.0</ele><time>2026-04-05T13:45:10.188Z</time></trkpt><trkpt lat="44.86206" lon="9.5961367"><ele>468.0</ele><time>2026-04-05T13:45:11.188Z</time></trkpt><trkpt lat="44.86209" lon="9.596045"><ele>467.00000000000006</ele><time>2026-04-05T13:45:12.189Z</time></trkpt><trkpt lat="44.8621083" lon="9.5959317"><ele>466.0</ele><time>2026-04-05T13:45:13.19Z</time></trkpt><trkpt lat="44.8621283" lon="9.5958267"><ele>466.00000000000006</ele><time>2026-04-05T13:45:14.189Z</time></trkpt><trkpt lat="44.8621433" lon="9.5957217"><ele>466.0</ele><time>2026-04-05T13:45:15.192Z</time></trkpt><trkpt lat="44.86217" lon="9.59562"><ele>466.0</ele><time>2026-04-05T13:45:16.189Z</time></trkpt><trkpt lat="44.8622167" lon="9.5955267"><ele>466.0</ele><time>2026-04-05T13:45:17.188Z</time></trkpt><trkpt lat="44.86228" lon="9.59545"><ele>466.00000000000006</ele><time>2026-04-05T13:45:18.19Z</time></trkpt><trkpt lat="44.8623617" lon="9.59539"><ele>466.0</ele><time>2026-04-05T13:45:19.189Z</time></trkpt><trkpt lat="44.8624533" lon="9.5953533"><ele>469.0</ele><time>2026-04-05T13:45:20.189Z</time></trkpt><trkpt lat="44.8625483" lon="9.5953333"><ele>472.0</ele><time>2026-04-05T13:45:21.188Z</time></trkpt><trkpt lat="44.8626533" lon="9.5953283"><ele>475.0</ele><time>2026-04-05T13:45:22.191Z</time></trkpt><trkpt lat="44.8627517" lon="9.5953517"><ele>478.0</ele><time>2026-04-05T13:45:23.189Z</time></trkpt><trkpt lat="44.8628483" lon="9.5953917"><ele>481.0</ele><time>2026-04-05T13:45:24.188Z</time></trkpt><trkpt lat="44.8629383" lon="9.5954417"><ele>481.0</ele><time>2026-04-05T13:45:25.188Z</time></trkpt><trkpt lat="44.8630317" lon="9.5955133"><ele>481.0</ele><time>2026-04-05T13:45:26.189Z</time></trkpt><trkpt lat="44.86313" lon="9.5956"><ele>481.0</ele><time>2026-04-05T13:45:27.189Z</time></trkpt><trkpt lat="44.863235" lon="9.5957233"><ele>481.0</ele><time>2026-04-05T13:45:28.188Z</time></trkpt><trkpt lat="44.8633383" lon="9.5958617"><ele>481.0</ele><time>2026-04-05T13:45:29.189Z</time></trkpt><trkpt lat="44.8634367" lon="9.596"><ele>481.0</ele><time>2026-04-05T13:45:30.191Z</time></trkpt><trkpt lat="44.8635217" lon="9.596115"><ele>481.0</ele><time>2026-04-05T13:45:31.189Z</time></trkpt><trkpt lat="44.8635933" lon="9.5961917"><ele>481.0</ele><time>2026-04-05T13:45:32.189Z</time></trkpt><trkpt lat="44.8636667" lon="9.596235"><ele>481.0</ele><time>2026-04-05T13:45:33.188Z</time></trkpt><trkpt lat="44.86374" lon="9.5962517"><ele>482.6</ele><time>2026-04-05T13:45:34.188Z</time></trkpt><trkpt lat="44.8638217" lon="9.5962367"><ele>484.20000000000005</ele><time>2026-04-05T13:45:35.188Z</time></trkpt><trkpt lat="44.8639167" lon="9.5962"><ele>485.79999999999995</ele><time>2026-04-05T13:45:36.191Z</time></trkpt><trkpt lat="44.8640233" lon="9.596155"><ele>487.4</ele><time>2026-04-05T13:45:37.19Z</time></trkpt><trkpt lat="44.864135" lon="9.596125"><ele>489.0</ele><time>2026-04-05T13:45:38.189Z</time></trkpt><trkpt lat="44.8642483" lon="9.5961183"><ele>489.25</ele><time>2026-04-05T13:45:39.189Z</time></trkpt><trkpt lat="44.8643617" lon="9.5961267"><ele>489.5</ele><time>2026-04-05T13:45:40.189Z</time></trkpt><trkpt lat="44.8644733" lon="9.596135"><ele>489.75</ele><time>2026-04-05T13:45:41.189Z</time></trkpt><trkpt lat="44.864595" lon="9.5960983"><ele>490.0</ele><time>2026-04-05T13:45:42.193Z</time></trkpt><trkpt lat="44.86473" lon="9.5960233"><ele>490.0</ele><time>2026-04-05T13:45:43.19Z</time></trkpt><trkpt lat="44.8648667" lon="9.59594"><ele>490.0</ele><time>2026-04-05T13:45:44.19Z</time></trkpt><trkpt lat="44.8649967" lon="9.5958783"><ele>490.0</ele><time>2026-04-05T13:45:45.191Z</time></trkpt><trkpt lat="44.8651067" lon="9.5958267"><ele>490.0</ele><time>2026-04-05T13:45:46.188Z</time></trkpt><trkpt lat="44.865195" lon="9.5957667"><ele>488.75</ele><time>2026-04-05T13:45:47.19Z</time></trkpt><trkpt lat="44.8652633" lon="9.5956767"><ele>487.5</ele><time>2026-04-05T13:45:48.191Z</time></trkpt><trkpt lat="44.86532" lon="9.59555"><ele>486.25</ele><time>2026-04-05T13:45:49.19Z</time></trkpt><trkpt lat="44.8653717" lon="9.5953817"><ele>485.0</ele><time>2026-04-05T13:45:50.189Z</time></trkpt><trkpt lat="44.8654167" lon="9.5952017"><ele>485.0</ele><time>2026-04-05T13:45:51.188Z</time></trkpt><trkpt lat="44.8654533" lon="9.5950517"><ele>485.0</ele><time>2026-04-05T13:45:52.189Z</time></trkpt><trkpt lat="44.86549" lon="9.5949217"><ele>485.0</ele><time>2026-04-05T13:45:53.188Z</time></trkpt><trkpt lat="44.8655333" lon="9.5947983"><ele>485.0</ele><time>2026-04-05T13:45:54.188Z</time></trkpt><trkpt lat="44.865585" lon="9.59468"><ele>485.0</ele><time>2026-04-05T13:45:55.188Z</time></trkpt><trkpt lat="44.8656483" lon="9.5945617"><ele>489.0</ele><time>2026-04-05T13:45:56.189Z</time></trkpt><trkpt lat="44.865715" lon="9.59445"><ele>493.0</ele><time>2026-04-05T13:45:57.188Z</time></trkpt><trkpt lat="44.8657817" lon="9.5943417"><ele>497.0</ele><time>2026-04-05T13:45:58.19Z</time></trkpt><trkpt lat="44.8658433" lon="9.5942383"><ele>501.0</ele><time>2026-04-05T13:45:59.188Z</time></trkpt><trkpt lat="44.8658983" lon="9.5941417"><ele>505.0</ele><time>2026-04-05T13:46:00.188Z</time></trkpt><trkpt lat="44.86594" lon="9.5940517"><ele>504.33333333333337</ele><time>2026-04-05T13:46:01.189Z</time></trkpt><trkpt lat="44.8659667" lon="9.5939633"><ele>503.6666666666667</ele><time>2026-04-05T13:46:02.189Z</time></trkpt><trkpt lat="44.8659783" lon="9.5938667"><ele>503.0</ele><time>2026-04-05T13:46:03.19Z</time></trkpt><trkpt lat="44.8659783" lon="9.5937567"><ele>502.33333333333337</ele><time>2026-04-05T13:46:04.189Z</time></trkpt><trkpt lat="44.86598" lon="9.59364"><ele>501.6666666666667</ele><time>2026-04-05T13:46:05.188Z</time></trkpt><trkpt lat="44.865985" lon="9.59352"><ele>501.0</ele><time>2026-04-05T13:46:06.188Z</time></trkpt><trkpt lat="44.8659917" lon="9.5933933"><ele>501.0</ele><time>2026-04-05T13:46:07.189Z</time></trkpt><trkpt lat="44.8660067" lon="9.5932567"><ele>501.0</ele><time>2026-04-05T13:46:08.189Z</time></trkpt><trkpt lat="44.8660183" lon="9.5931167"><ele>501.0</ele><time>2026-04-05T13:46:09.188Z</time></trkpt><trkpt lat="44.8660267" lon="9.59297"><ele>501.0</ele><time>2026-04-05T13:46:10.189Z</time></trkpt><trkpt lat="44.8660317" lon="9.5928283"><ele>501.0</ele><time>2026-04-05T13:46:11.189Z</time></trkpt><trkpt lat="44.8660417" lon="9.5926917"><ele>502.6</ele><time>2026-04-05T13:46:12.188Z</time></trkpt><trkpt lat="44.866065" lon="9.5925667"><ele>504.20000000000005</ele><time>2026-04-05T13:46:13.188Z</time></trkpt><trkpt lat="44.8661033" lon="9.592455"><ele>505.79999999999995</ele><time>2026-04-05T13:46:14.189Z</time></trkpt><trkpt lat="44.866155" lon="9.5923583"><ele>507.4</ele><time>2026-04-05T13:46:15.189Z</time></trkpt><trkpt lat="44.866225" lon="9.5922767"><ele>509.0</ele><time>2026-04-05T13:46:16.188Z</time></trkpt><trkpt lat="44.8663033" lon="9.5922017"><ele>508.99999999999994</ele><time>2026-04-05T13:46:17.188Z</time></trkpt><trkpt lat="44.8663817" lon="9.5921467"><ele>509.0</ele><time>2026-04-05T13:46:18.189Z</time></trkpt><trkpt lat="44.8664617" lon="9.5921117"><ele>509.0</ele><time>2026-04-05T13:46:19.188Z</time></trkpt><trkpt lat="44.8665383" lon="9.5920967"><ele>509.0</ele><time>2026-04-05T13:46:20.189Z</time></trkpt><trkpt lat="44.8666117" lon="9.5920867"><ele>508.99999999999994</ele><time>2026-04-05T13:46:21.188Z</time></trkpt><trkpt lat="44.8666817" lon="9.59208"><ele>509.0</ele><time>2026-04-05T13:46:22.188Z</time></trkpt><trkpt lat="44.8667883" lon="9.5920817"><ele>509.16666666666663</ele><time>2026-04-05T13:46:24.19Z</time></trkpt><trkpt lat="44.86685" lon="9.5921"><ele>509.3333333333333</ele><time>2026-04-05T13:46:27.188Z</time></trkpt><trkpt lat="44.8669033" lon="9.5921817"><ele>509.5</ele><time>2026-04-05T13:46:30.19Z</time></trkpt><trkpt lat="44.8669283" lon="9.5923233"><ele>509.66666666666663</ele><time>2026-04-05T13:46:32.19Z</time></trkpt><trkpt lat="44.866945" lon="9.59243"><ele>509.8333333333333</ele><time>2026-04-05T13:46:33.19Z</time></trkpt><trkpt lat="44.86697" lon="9.5925583"><ele>510.0</ele><time>2026-04-05T13:46:34.19Z</time></trkpt><trkpt lat="44.867005" lon="9.59271"><ele>510.5</ele><time>2026-04-05T13:46:35.19Z</time></trkpt><trkpt lat="44.8670433" lon="9.5928483"><ele>511.0</ele><time>2026-04-05T13:46:36.19Z</time></trkpt><trkpt lat="44.8670833" lon="9.5929683"><ele>511.5</ele><time>2026-04-05T13:46:37.19Z</time></trkpt><trkpt lat="44.867125" lon="9.593065"><ele>512.0</ele><time>2026-04-05T13:46:38.191Z</time></trkpt><trkpt lat="44.8671667" lon="9.5931517"><ele>512.5</ele><time>2026-04-05T13:46:39.189Z</time></trkpt><trkpt lat="44.8672133" lon="9.5932283"><ele>513.0</ele><time>2026-04-05T13:46:40.189Z</time></trkpt><trkpt lat="44.8672683" lon="9.5932983"><ele>513.0</ele><time>2026-04-05T13:46:41.189Z</time></trkpt><trkpt lat="44.8673317" lon="9.59336"><ele>513.0</ele><time>2026-04-05T13:46:42.19Z</time></trkpt><trkpt lat="44.8674" lon="9.59341"><ele>513.0</ele><time>2026-04-05T13:46:43.19Z</time></trkpt><trkpt lat="44.867475" lon="9.59345"><ele>513.0</ele><time>2026-04-05T13:46:44.194Z</time></trkpt><trkpt lat="44.867555" lon="9.5934783"><ele>513.0</ele><time>2026-04-05T13:46:45.189Z</time></trkpt><trkpt lat="44.8676317" lon="9.5934967"><ele>513.0</ele><time>2026-04-05T13:46:46.189Z</time></trkpt><trkpt lat="44.8677167" lon="9.593515"><ele>511.5</ele><time>2026-04-05T13:46:47.189Z</time></trkpt><trkpt lat="44.8678067" lon="9.5935317"><ele>510.0</ele><time>2026-04-05T13:46:48.19Z</time></trkpt><trkpt lat="44.8678967" lon="9.5935467"><ele>508.5</ele><time>2026-04-05T13:46:49.189Z</time></trkpt><trkpt lat="44.8679867" lon="9.59356"><ele>507.0</ele><time>2026-04-05T13:46:50.19Z</time></trkpt><trkpt lat="44.8681667" lon="9.5935867"><ele>507.0</ele><time>2026-04-05T13:46:52.189Z</time></trkpt><trkpt lat="44.86825" lon="9.593605"><ele>507.00000000000006</ele><time>2026-04-05T13:46:53.19Z</time></trkpt><trkpt lat="44.8684" lon="9.5936533"><ele>507.00000000000006</ele><time>2026-04-05T13:46:55.188Z</time></trkpt><trkpt lat="44.86846" lon="9.5936833"><ele>507.0</ele><time>2026-04-05T13:46:56.189Z</time></trkpt><trkpt lat="44.8685667" lon="9.5937867"><ele>507.0</ele><time>2026-04-05T13:46:58.188Z</time></trkpt><trkpt lat="44.86862" lon="9.5938583"><ele>506.8333333333333</ele><time>2026-04-05T13:46:59.19Z</time></trkpt><trkpt lat="44.8686667" lon="9.5939317"><ele>506.66666666666663</ele><time>2026-04-05T13:47:00.191Z</time></trkpt><trkpt lat="44.8687117" lon="9.59401"><ele>506.5</ele><time>2026-04-05T13:47:01.19Z</time></trkpt><trkpt lat="44.86876" lon="9.5941"><ele>506.3333333333333</ele><time>2026-04-05T13:47:02.19Z</time></trkpt><trkpt lat="44.8688083" lon="9.5941867"><ele>506.16666666666663</ele><time>2026-04-05T13:47:03.191Z</time></trkpt><trkpt lat="44.8688517" lon="9.5942767"><ele>506.0</ele><time>2026-04-05T13:47:04.19Z</time></trkpt><trkpt lat="44.868895" lon="9.5943733"><ele>506.0</ele><time>2026-04-05T13:47:05.189Z</time></trkpt><trkpt lat="44.8689433" lon="9.5944733"><ele>506.0</ele><time>2026-04-05T13:47:06.188Z</time></trkpt><trkpt lat="44.8689983" lon="9.5945733"><ele>506.0</ele><time>2026-04-05T13:47:07.188Z</time></trkpt><trkpt lat="44.8690567" lon="9.5946783"><ele>506.0</ele><time>2026-04-05T13:47:08.19Z</time></trkpt><trkpt lat="44.8691283" lon="9.5947883"><ele>506.0</ele><time>2026-04-05T13:47:09.188Z</time></trkpt><trkpt lat="44.8692067" lon="9.5948983"><ele>506.0</ele><time>2026-04-05T13:47:10.188Z</time></trkpt><trkpt lat="44.86929" lon="9.595"><ele>506.0</ele><time>2026-04-05T13:47:11.188Z</time></trkpt><trkpt lat="44.8693733" lon="9.5951"><ele>506.0</ele><time>2026-04-05T13:47:12.189Z</time></trkpt><trkpt lat="44.869465" lon="9.5951967"><ele>506.0</ele><time>2026-04-05T13:47:13.189Z</time></trkpt><trkpt lat="44.869565" lon="9.5952817"><ele>508.20000000000005</ele><time>2026-04-05T13:47:14.189Z</time></trkpt><trkpt lat="44.8696683" lon="9.5953583"><ele>510.40000000000003</ele><time>2026-04-05T13:47:15.19Z</time></trkpt><trkpt lat="44.86977" lon="9.5954333"><ele>512.6</ele><time>2026-04-05T13:47:16.188Z</time></trkpt><trkpt lat="44.8698683" lon="9.595505"><ele>514.8000000000001</ele><time>2026-04-05T13:47:17.189Z</time></trkpt><trkpt lat="44.86996" lon="9.595565"><ele>517.0</ele><time>2026-04-05T13:47:18.189Z</time></trkpt><trkpt lat="44.8700483" lon="9.5956217"><ele>515.6</ele><time>2026-04-05T13:47:19.192Z</time></trkpt><trkpt lat="44.8701333" lon="9.595675"><ele>514.2</ele><time>2026-04-05T13:47:20.189Z</time></trkpt><trkpt lat="44.8702217" lon="9.595725"><ele>512.8</ele><time>2026-04-05T13:47:21.189Z</time></trkpt><trkpt lat="44.8703233" lon="9.5957683"><ele>511.4</ele><time>2026-04-05T13:47:22.189Z</time></trkpt><trkpt lat="44.8704317" lon="9.59581"><ele>510.0</ele><time>2026-04-05T13:47:23.189Z</time></trkpt><trkpt lat="44.870535" lon="9.5958533"><ele>510.0</ele><time>2026-04-05T13:47:24.188Z</time></trkpt><trkpt lat="44.8706367" lon="9.5958933"><ele>510.0</ele><time>2026-04-05T13:47:25.188Z</time></trkpt><trkpt lat="44.8707417" lon="9.5959267"><ele>510.0</ele><time>2026-04-05T13:47:26.189Z</time></trkpt><trkpt lat="44.8708367" lon="9.5959667"><ele>510.0</ele><time>2026-04-05T13:47:27.188Z</time></trkpt><trkpt lat="44.8709383" lon="9.5960133"><ele>510.0</ele><time>2026-04-05T13:47:28.189Z</time></trkpt><trkpt lat="44.8710367" lon="9.59606"><ele>510.2</ele><time>2026-04-05T13:47:29.188Z</time></trkpt><trkpt lat="44.8711383" lon="9.5961117"><ele>510.4</ele><time>2026-04-05T13:47:30.187Z</time></trkpt><trkpt lat="44.8712367" lon="9.5961667"><ele>510.6</ele><time>2026-04-05T13:47:31.188Z</time></trkpt><trkpt lat="44.8713283" lon="9.59623"><ele>510.8</ele><time>2026-04-05T13:47:32.188Z</time></trkpt><trkpt lat="44.8714133" lon="9.5962917"><ele>511.0</ele><time>2026-04-05T13:47:33.188Z</time></trkpt><trkpt lat="44.87149" lon="9.59636"><ele>511.0</ele><time>2026-04-05T13:47:34.188Z</time></trkpt><trkpt lat="44.8715683" lon="9.596435"><ele>511.0</ele><time>2026-04-05T13:47:35.188Z</time></trkpt><trkpt lat="44.8716533" lon="9.5965267"><ele>511.0</ele><time>2026-04-05T13:47:36.189Z</time></trkpt><trkpt lat="44.87174" lon="9.5966217"><ele>511.0</ele><time>2026-04-05T13:47:37.188Z</time></trkpt><trkpt lat="44.8718267" lon="9.59672"><ele>511.0</ele><time>2026-04-05T13:47:38.188Z</time></trkpt><trkpt lat="44.8719117" lon="9.5968133"><ele>509.0</ele><time>2026-04-05T13:47:39.188Z</time></trkpt><trkpt lat="44.8719967" lon="9.596905"><ele>507.0</ele><time>2026-04-05T13:47:40.189Z</time></trkpt><trkpt lat="44.8720767" lon="9.5969967"><ele>505.0</ele><time>2026-04-05T13:47:41.188Z</time></trkpt><trkpt lat="44.8721567" lon="9.597095"><ele>503.0</ele><time>2026-04-05T13:47:42.187Z</time></trkpt><trkpt lat="44.8722367" lon="9.597195"><ele>501.0</ele><time>2026-04-05T13:47:43.187Z</time></trkpt><trkpt lat="44.8723167" lon="9.5972933"><ele>501.0</ele><time>2026-04-05T13:47:44.188Z</time></trkpt><trkpt lat="44.8724" lon="9.5973983"><ele>501.0</ele><time>2026-04-05T13:47:45.188Z</time></trkpt><trkpt lat="44.8724883" lon="9.5975033"><ele>501.0</ele><time>2026-04-05T13:47:46.189Z</time></trkpt><trkpt lat="44.8725833" lon="9.59761"><ele>501.0</ele><time>2026-04-05T13:47:47.188Z</time></trkpt><trkpt lat="44.87268" lon="9.597725"><ele>501.25</ele><time>2026-04-05T13:47:48.189Z</time></trkpt><trkpt lat="44.8727783" lon="9.5978367"><ele>501.5</ele><time>2026-04-05T13:47:49.189Z</time></trkpt><trkpt lat="44.87288" lon="9.5979533"><ele>501.75</ele><time>2026-04-05T13:47:50.192Z</time></trkpt><trkpt lat="44.8729783" lon="9.5980667"><ele>502.0</ele><time>2026-04-05T13:47:51.189Z</time></trkpt><trkpt lat="44.8730683" lon="9.5981717"><ele>502.0</ele><time>2026-04-05T13:47:52.189Z</time></trkpt><trkpt lat="44.8731533" lon="9.59828"><ele>502.0</ele><time>2026-04-05T13:47:53.189Z</time></trkpt><trkpt lat="44.8732383" lon="9.59839"><ele>502.0</ele><time>2026-04-05T13:47:54.188Z</time></trkpt><trkpt lat="44.8733217" lon="9.5984983"><ele>502.0</ele><time>2026-04-05T13:47:55.188Z</time></trkpt><trkpt lat="44.8734083" lon="9.5986067"><ele>501.75</ele><time>2026-04-05T13:47:56.189Z</time></trkpt><trkpt lat="44.8734933" lon="9.5987183"><ele>501.5</ele><time>2026-04-05T13:47:57.187Z</time></trkpt><trkpt lat="44.8735833" lon="9.5988283"><ele>501.25</ele><time>2026-04-05T13:47:58.187Z</time></trkpt><trkpt lat="44.8736783" lon="9.598935"><ele>501.0</ele><time>2026-04-05T13:47:59.189Z</time></trkpt><trkpt lat="44.873775" lon="9.5990383"><ele>501.0</ele><time>2026-04-05T13:48:00.187Z</time></trkpt><trkpt lat="44.87387" lon="9.5991367"><ele>501.0</ele><time>2026-04-05T13:48:01.188Z</time></trkpt><trkpt lat="44.8739617" lon="9.59923"><ele>501.0</ele><time>2026-04-05T13:48:02.19Z</time></trkpt><trkpt lat="44.8740417" lon="9.5993233"><ele>501.0</ele><time>2026-04-05T13:48:03.189Z</time></trkpt><trkpt lat="44.8741067" lon="9.5994167"><ele>501.0</ele><time>2026-04-05T13:48:04.187Z</time></trkpt><trkpt lat="44.8741617" lon="9.59952"><ele>501.4</ele><time>2026-04-05T13:48:05.188Z</time></trkpt><trkpt lat="44.8742117" lon="9.5996467"><ele>501.8</ele><time>2026-04-05T13:48:06.188Z</time></trkpt><trkpt lat="44.8742533" lon="9.599785"><ele>502.19999999999993</ele><time>2026-04-05T13:48:07.187Z</time></trkpt><trkpt lat="44.8743" lon="9.599925"><ele>502.59999999999997</ele><time>2026-04-05T13:48:08.191Z</time></trkpt><trkpt lat="44.8743567" lon="9.600065"><ele>503.0</ele><time>2026-04-05T13:48:09.187Z</time></trkpt><trkpt lat="44.8744183" lon="9.6001983"><ele>503.59999999999997</ele><time>2026-04-05T13:48:10.189Z</time></trkpt><trkpt lat="44.87448" lon="9.6003183"><ele>504.19999999999993</ele><time>2026-04-05T13:48:11.188Z</time></trkpt><trkpt lat="44.874545" lon="9.6004367"><ele>504.8</ele><time>2026-04-05T13:48:12.187Z</time></trkpt><trkpt lat="44.87461" lon="9.6005483"><ele>505.4</ele><time>2026-04-05T13:48:13.188Z</time></trkpt><trkpt lat="44.8746683" lon="9.6006467"><ele>506.0</ele><time>2026-04-05T13:48:14.188Z</time></trkpt><trkpt lat="44.8747183" lon="9.6007483"><ele>506.0</ele><time>2026-04-05T13:48:15.188Z</time></trkpt><trkpt lat="44.8747667" lon="9.6008567"><ele>506.0</ele><time>2026-04-05T13:48:16.189Z</time></trkpt><trkpt lat="44.8748133" lon="9.60097"><ele>506.0</ele><time>2026-04-05T13:48:17.192Z</time></trkpt><trkpt lat="44.8748617" lon="9.6011017"><ele>506.0</ele><time>2026-04-05T13:48:18.188Z</time></trkpt><trkpt lat="44.874905" lon="9.6012417"><ele>506.0</ele><time>2026-04-05T13:48:19.189Z</time></trkpt><trkpt lat="44.8749417" lon="9.6013867"><ele>503.4</ele><time>2026-04-05T13:48:20.189Z</time></trkpt><trkpt lat="44.8749717" lon="9.6015267"><ele>500.8</ele><time>2026-04-05T13:48:21.188Z</time></trkpt><trkpt lat="44.875005" lon="9.60167"><ele>498.19999999999993</ele><time>2026-04-05T13:48:22.189Z</time></trkpt><trkpt lat="44.875045" lon="9.60182"><ele>495.59999999999997</ele><time>2026-04-05T13:48:23.189Z</time></trkpt><trkpt lat="44.8750833" lon="9.6019767"><ele>493.0</ele><time>2026-04-05T13:48:24.188Z</time></trkpt><trkpt lat="44.8751217" lon="9.6021283"><ele>489.75</ele><time>2026-04-05T13:48:25.188Z</time></trkpt><trkpt lat="44.875165" lon="9.6022783"><ele>486.5</ele><time>2026-04-05T13:48:26.189Z</time></trkpt><trkpt lat="44.875215" lon="9.6024317"><ele>483.25</ele><time>2026-04-05T13:48:27.188Z</time></trkpt><trkpt lat="44.8752683" lon="9.60259"><ele>480.0</ele><time>2026-04-05T13:48:28.191Z</time></trkpt><trkpt lat="44.8753233" lon="9.6027367"><ele>479.6</ele><time>2026-04-05T13:48:29.191Z</time></trkpt><trkpt lat="44.8753804" lon="9.6028732"><ele>479.2</ele><time>2026-04-05T13:48:30.19Z</time></trkpt><trkpt lat="44.8754373" lon="9.6030055"><ele>478.79999999999995</ele><time>2026-04-05T13:48:31.191Z</time></trkpt><trkpt lat="44.875495" lon="9.6031393"><ele>478.4</ele><time>2026-04-05T13:48:32.188Z</time></trkpt><trkpt lat="44.8755507" lon="9.603276"><ele>478.0</ele><time>2026-04-05T13:48:33.189Z</time></trkpt><trkpt lat="44.875599" lon="9.6034114"><ele>478.0</ele><time>2026-04-05T13:48:34.188Z</time></trkpt><trkpt lat="44.8756312" lon="9.603543"><ele>477.99999999999994</ele><time>2026-04-05T13:48:35.188Z</time></trkpt><trkpt lat="44.8756488" lon="9.6036732"><ele>477.99999999999994</ele><time>2026-04-05T13:48:36.188Z</time></trkpt><trkpt lat="44.8756492" lon="9.6038019"><ele>478.0</ele><time>2026-04-05T13:48:37.188Z</time></trkpt><trkpt lat="44.8756338" lon="9.6039255"><ele>478.0</ele><time>2026-04-05T13:48:38.188Z</time></trkpt><trkpt lat="44.8756021" lon="9.6040432"><ele>476.79999999999995</ele><time>2026-04-05T13:48:39.188Z</time></trkpt><trkpt lat="44.8755543" lon="9.604155"><ele>475.59999999999997</ele><time>2026-04-05T13:48:40.188Z</time></trkpt><trkpt lat="44.8754975" lon="9.6042644"><ele>474.40000000000003</ele><time>2026-04-05T13:48:41.189Z</time></trkpt><trkpt lat="44.8754336" lon="9.6043789"><ele>473.20000000000005</ele><time>2026-04-05T13:48:42.187Z</time></trkpt><trkpt lat="44.8753732" lon="9.6045006"><ele>472.0</ele><time>2026-04-05T13:48:43.187Z</time></trkpt><trkpt lat="44.8753137" lon="9.6046343"><ele>471.0</ele><time>2026-04-05T13:48:44.188Z</time></trkpt><trkpt lat="44.8752746" lon="9.6047884"><ele>470.0</ele><time>2026-04-05T13:48:45.188Z</time></trkpt><trkpt lat="44.8752487" lon="9.6049558"><ele>469.0</ele><time>2026-04-05T13:48:46.187Z</time></trkpt><trkpt lat="44.8752335" lon="9.6051266"><ele>468.0</ele><time>2026-04-05T13:48:47.188Z</time></trkpt><trkpt lat="44.875226" lon="9.6052936"><ele>469.59999999999997</ele><time>2026-04-05T13:48:48.189Z</time></trkpt><trkpt lat="44.8752345" lon="9.6054459"><ele>471.19999999999993</ele><time>2026-04-05T13:48:49.188Z</time></trkpt><trkpt lat="44.87526" lon="9.6055834"><ele>472.8</ele><time>2026-04-05T13:48:50.189Z</time></trkpt><trkpt lat="44.8752991" lon="9.6057129"><ele>474.4</ele><time>2026-04-05T13:48:51.189Z</time></trkpt><trkpt lat="44.8753561" lon="9.6058368"><ele>476.0</ele><time>2026-04-05T13:48:52.188Z</time></trkpt><trkpt lat="44.8754254" lon="9.6059508"><ele>476.0</ele><time>2026-04-05T13:48:53.188Z</time></trkpt><trkpt lat="44.875502" lon="9.6060595"><ele>476.0</ele><time>2026-04-05T13:48:54.192Z</time></trkpt><trkpt lat="44.875578" lon="9.606169"><ele>476.0</ele><time>2026-04-05T13:48:55.188Z</time></trkpt><trkpt lat="44.8756546" lon="9.606281"><ele>476.0</ele><time>2026-04-05T13:48:56.188Z</time></trkpt><trkpt lat="44.8757237" lon="9.6064039"><ele>476.0</ele><time>2026-04-05T13:48:57.188Z</time></trkpt><trkpt lat="44.8757899" lon="9.606538"><ele>475.25</ele><time>2026-04-05T13:48:58.189Z</time></trkpt><trkpt lat="44.8758545" lon="9.6066763"><ele>474.5</ele><time>2026-04-05T13:48:59.188Z</time></trkpt><trkpt lat="44.8759204" lon="9.6068085"><ele>473.75</ele><time>2026-04-05T13:49:00.192Z</time></trkpt><trkpt lat="44.8759925" lon="9.6069372"><ele>473.0</ele><time>2026-04-05T13:49:01.188Z</time></trkpt><trkpt lat="44.8760777" lon="9.6070612"><ele>473.0</ele><time>2026-04-05T13:49:02.188Z</time></trkpt><trkpt lat="44.8761729" lon="9.6071802"><ele>473.0</ele><time>2026-04-05T13:49:03.188Z</time></trkpt><trkpt lat="44.8762725" lon="9.6073012"><ele>473.0</ele><time>2026-04-05T13:49:04.189Z</time></trkpt><trkpt lat="44.8763664" lon="9.6074262"><ele>473.0</ele><time>2026-04-05T13:49:05.188Z</time></trkpt><trkpt lat="44.8764528" lon="9.6075543"><ele>473.0</ele><time>2026-04-05T13:49:06.189Z</time></trkpt><trkpt lat="44.8765354" lon="9.6076867"><ele>473.0</ele><time>2026-04-05T13:49:07.189Z</time></trkpt><trkpt lat="44.8766086" lon="9.6078335"><ele>473.0</ele><time>2026-04-05T13:49:08.189Z</time></trkpt><trkpt lat="44.8766715" lon="9.6079976"><ele>473.0</ele><time>2026-04-05T13:49:09.188Z</time></trkpt><trkpt lat="44.8767352" lon="9.6081681"><ele>471.0</ele><time>2026-04-05T13:49:10.192Z</time></trkpt><trkpt lat="44.8767915" lon="9.6083404"><ele>469.0</ele><time>2026-04-05T13:49:11.189Z</time></trkpt><trkpt lat="44.8768433" lon="9.6085084"><ele>467.0</ele><time>2026-04-05T13:49:12.188Z</time></trkpt><trkpt lat="44.8768944" lon="9.6086616"><ele>465.0</ele><time>2026-04-05T13:49:13.188Z</time></trkpt><trkpt lat="44.8769556" lon="9.6087943"><ele>465.0</ele><time>2026-04-05T13:49:14.189Z</time></trkpt><trkpt lat="44.8770318" lon="9.6089155"><ele>465.0</ele><time>2026-04-05T13:49:15.188Z</time></trkpt><trkpt lat="44.8771214" lon="9.6090289"><ele>465.0</ele><time>2026-04-05T13:49:16.188Z</time></trkpt><trkpt lat="44.8772262" lon="9.6091324"><ele>465.0</ele><time>2026-04-05T13:49:17.188Z</time></trkpt><trkpt lat="44.877339" lon="9.6092275"><ele>465.0</ele><time>2026-04-05T13:49:18.188Z</time></trkpt><trkpt lat="44.8774569" lon="9.6093182"><ele>465.0</ele><time>2026-04-05T13:49:19.188Z</time></trkpt><trkpt lat="44.8775738" lon="9.6093975"><ele>465.0</ele><time>2026-04-05T13:49:20.189Z</time></trkpt><trkpt lat="44.8776855" lon="9.6094643"><ele>465.0</ele><time>2026-04-05T13:49:21.188Z</time></trkpt><trkpt lat="44.8777857" lon="9.609517"><ele>463.2</ele><time>2026-04-05T13:49:22.189Z</time></trkpt><trkpt lat="44.8778764" lon="9.6095699"><ele>461.4</ele><time>2026-04-05T13:49:23.19Z</time></trkpt><trkpt lat="44.8779531" lon="9.6096365"><ele>459.6</ele><time>2026-04-05T13:49:24.19Z</time></trkpt><trkpt lat="44.8780141" lon="9.609727"><ele>457.8</ele><time>2026-04-05T13:49:25.188Z</time></trkpt><trkpt lat="44.8780535" lon="9.6098418"><ele>456.0</ele><time>2026-04-05T13:49:26.19Z</time></trkpt><trkpt lat="44.8780641" lon="9.6099709"><ele>456.0</ele><time>2026-04-05T13:49:27.188Z</time></trkpt><trkpt lat="44.8780497" lon="9.610101"><ele>456.0</ele><time>2026-04-05T13:49:28.188Z</time></trkpt><trkpt lat="44.8780094" lon="9.6102243"><ele>456.0</ele><time>2026-04-05T13:49:29.188Z</time></trkpt><trkpt lat="44.8779507" lon="9.6103373"><ele>456.0</ele><time>2026-04-05T13:49:30.188Z</time></trkpt><trkpt lat="44.8778643" lon="9.6104466"><ele>456.0</ele><time>2026-04-05T13:49:31.188Z</time></trkpt><trkpt lat="44.8777517" lon="9.61056"><ele>456.5</ele><time>2026-04-05T13:49:32.188Z</time></trkpt><trkpt lat="44.877645" lon="9.6106833"><ele>457.0</ele><time>2026-04-05T13:49:33.188Z</time></trkpt><trkpt lat="44.8775383" lon="9.6108117"><ele>457.5</ele><time>2026-04-05T13:49:34.187Z</time></trkpt><trkpt lat="44.8774367" lon="9.6109333"><ele>458.0</ele><time>2026-04-05T13:49:35.188Z</time></trkpt><trkpt lat="44.8773433" lon="9.6110567"><ele>455.25</ele><time>2026-04-05T13:49:36.188Z</time></trkpt><trkpt lat="44.8772567" lon="9.6112"><ele>452.5</ele><time>2026-04-05T13:49:37.188Z</time></trkpt><trkpt lat="44.8771767" lon="9.6113617"><ele>449.75</ele><time>2026-04-05T13:49:38.189Z</time></trkpt><trkpt lat="44.877105" lon="9.611535"><ele>447.0</ele><time>2026-04-05T13:49:39.188Z</time></trkpt><trkpt lat="44.8770383" lon="9.61171"><ele>447.0</ele><time>2026-04-05T13:49:40.188Z</time></trkpt><trkpt lat="44.8769733" lon="9.6118817"><ele>447.0</ele><time>2026-04-05T13:49:41.188Z</time></trkpt><trkpt lat="44.8769033" lon="9.6120417"><ele>447.0</ele><time>2026-04-05T13:49:42.188Z</time></trkpt><trkpt lat="44.8768217" lon="9.6121933"><ele>447.0</ele><time>2026-04-05T13:49:43.188Z</time></trkpt><trkpt lat="44.8767167" lon="9.6123383"><ele>445.5</ele><time>2026-04-05T13:49:44.19Z</time></trkpt><trkpt lat="44.8766017" lon="9.6124767"><ele>444.0</ele><time>2026-04-05T13:49:45.188Z</time></trkpt><trkpt lat="44.8764917" lon="9.6126117"><ele>442.5</ele><time>2026-04-05T13:49:46.188Z</time></trkpt><trkpt lat="44.8763917" lon="9.6127367"><ele>441.0</ele><time>2026-04-05T13:49:47.188Z</time></trkpt><trkpt lat="44.8763" lon="9.6128583"><ele>439.6</ele><time>2026-04-05T13:49:48.188Z</time></trkpt><trkpt lat="44.876225" lon="9.61298"><ele>438.20000000000005</ele><time>2026-04-05T13:49:49.187Z</time></trkpt><trkpt lat="44.8761667" lon="9.6131067"><ele>436.79999999999995</ele><time>2026-04-05T13:49:50.189Z</time></trkpt><trkpt lat="44.8761233" lon="9.6132483"><ele>435.4</ele><time>2026-04-05T13:49:51.189Z</time></trkpt><trkpt lat="44.8760917" lon="9.6134"><ele>434.0</ele><time>2026-04-05T13:49:52.188Z</time></trkpt><trkpt lat="44.8760667" lon="9.613565"><ele>431.75</ele><time>2026-04-05T13:49:53.188Z</time></trkpt><trkpt lat="44.8760467" lon="9.6137283"><ele>429.5</ele><time>2026-04-05T13:49:54.188Z</time></trkpt><trkpt lat="44.87603" lon="9.6138917"><ele>427.25</ele><time>2026-04-05T13:49:55.187Z</time></trkpt><trkpt lat="44.876015" lon="9.6140533"><ele>425.0</ele><time>2026-04-05T13:49:56.189Z</time></trkpt><trkpt lat="44.876" lon="9.61422"><ele>425.0</ele><time>2026-04-05T13:49:57.188Z</time></trkpt><trkpt lat="44.875985" lon="9.6143933"><ele>425.0</ele><time>2026-04-05T13:49:58.187Z</time></trkpt><trkpt lat="44.87597" lon="9.6145633"><ele>425.0</ele><time>2026-04-05T13:49:59.188Z</time></trkpt><trkpt lat="44.8759567" lon="9.614725"><ele>425.0</ele><time>2026-04-05T13:50:00.193Z</time></trkpt><trkpt lat="44.8759417" lon="9.61487"><ele>425.8333333333333</ele><time>2026-04-05T13:50:01.192Z</time></trkpt><trkpt lat="44.8759267" lon="9.6149933"><ele>426.66666666666663</ele><time>2026-04-05T13:50:02.188Z</time></trkpt><trkpt lat="44.8759083" lon="9.6150983"><ele>427.5</ele><time>2026-04-05T13:50:03.188Z</time></trkpt><trkpt lat="44.8758783" lon="9.6151867"><ele>428.33333333333337</ele><time>2026-04-05T13:50:04.187Z</time></trkpt><trkpt lat="44.8757783" lon="9.6152783"><ele>429.1666666666667</ele><time>2026-04-05T13:50:06.187Z</time></trkpt><trkpt lat="44.8757117" lon="9.61528"><ele>430.0</ele><time>2026-04-05T13:50:07.19Z</time></trkpt><trkpt lat="44.8756367" lon="9.6152617"><ele>430.0</ele><time>2026-04-05T13:50:08.189Z</time></trkpt><trkpt lat="44.8755483" lon="9.6152333"><ele>430.0</ele><time>2026-04-05T13:50:09.188Z</time></trkpt><trkpt lat="44.8754533" lon="9.61522"><ele>430.0</ele><time>2026-04-05T13:50:10.187Z</time></trkpt><trkpt lat="44.875355" lon="9.615245"><ele>430.0</ele><time>2026-04-05T13:50:11.188Z</time></trkpt><trkpt lat="44.8752567" lon="9.6153017"><ele>430.0</ele><time>2026-04-05T13:50:12.188Z</time></trkpt><trkpt lat="44.8751717" lon="9.6153717"><ele>429.6</ele><time>2026-04-05T13:50:13.188Z</time></trkpt><trkpt lat="44.8750917" lon="9.615445"><ele>429.2</ele><time>2026-04-05T13:50:14.188Z</time></trkpt><trkpt lat="44.875015" lon="9.6155233"><ele>428.79999999999995</ele><time>2026-04-05T13:50:15.188Z</time></trkpt><trkpt lat="44.8749383" lon="9.615605"><ele>428.4</ele><time>2026-04-05T13:50:16.188Z</time></trkpt><trkpt lat="44.8748683" lon="9.6156867"><ele>428.0</ele><time>2026-04-05T13:50:17.188Z</time></trkpt><trkpt lat="44.8748067" lon="9.6157583"><ele>428.0</ele><time>2026-04-05T13:50:18.188Z</time></trkpt><trkpt lat="44.8747567" lon="9.615825"><ele>427.99999999999994</ele><time>2026-04-05T13:50:19.188Z</time></trkpt><trkpt lat="44.87471" lon="9.6159717"><ele>427.99999999999994</ele><time>2026-04-05T13:50:21.187Z</time></trkpt><trkpt lat="44.8747183" lon="9.6161133"><ele>428.0</ele><time>2026-04-05T13:50:23.19Z</time></trkpt><trkpt lat="44.87482" lon="9.6161883"><ele>428.0</ele><time>2026-04-05T13:50:25.188Z</time></trkpt><trkpt lat="44.8749417" lon="9.61615"><ele>427.99999999999994</ele><time>2026-04-05T13:50:27.188Z</time></trkpt><trkpt lat="44.874995" lon="9.6160783"><ele>428.0</ele><time>2026-04-05T13:50:28.187Z</time></trkpt><trkpt lat="44.87504" lon="9.615975"><ele>428.0</ele><time>2026-04-05T13:50:29.188Z</time></trkpt><trkpt lat="44.8750867" lon="9.6158717"><ele>428.0</ele><time>2026-04-05T13:50:30.188Z</time></trkpt><trkpt lat="44.8751333" lon="9.615795"><ele>427.99999999999994</ele><time>2026-04-05T13:50:31.188Z</time></trkpt><trkpt lat="44.8751883" lon="9.6157383"><ele>428.0</ele><time>2026-04-05T13:50:32.188Z</time></trkpt><trkpt lat="44.8752517" lon="9.6157117"><ele>426.59999999999997</ele><time>2026-04-05T13:50:33.188Z</time></trkpt><trkpt lat="44.8753267" lon="9.6157217"><ele>425.19999999999993</ele><time>2026-04-05T13:50:34.189Z</time></trkpt><trkpt lat="44.8754067" lon="9.61578"><ele>423.8</ele><time>2026-04-05T13:50:35.189Z</time></trkpt><trkpt lat="44.8754883" lon="9.615875"><ele>422.4</ele><time>2026-04-05T13:50:36.188Z</time></trkpt><trkpt lat="44.87557" lon="9.6160233"><ele>421.0</ele><time>2026-04-05T13:50:37.189Z</time></trkpt><trkpt lat="44.8756333" lon="9.61617"><ele>418.0</ele><time>2026-04-05T13:50:38.19Z</time></trkpt><trkpt lat="44.875685" lon="9.61634"><ele>415.0</ele><time>2026-04-05T13:50:39.188Z</time></trkpt><trkpt lat="44.8757283" lon="9.616725"><ele>412.0</ele><time>2026-04-05T13:50:41.189Z</time></trkpt><trkpt lat="44.8757317" lon="9.61694"><ele>410.5</ele><time>2026-04-05T13:50:42.188Z</time></trkpt><trkpt lat="44.87573" lon="9.617145"><ele>409.0</ele><time>2026-04-05T13:50:43.188Z</time></trkpt><trkpt lat="44.8757333" lon="9.6173383"><ele>407.5</ele><time>2026-04-05T13:50:44.189Z</time></trkpt><trkpt lat="44.8757383" lon="9.61751"><ele>406.0</ele><time>2026-04-05T13:50:45.189Z</time></trkpt><trkpt lat="44.8757483" lon="9.617665"><ele>406.0</ele><time>2026-04-05T13:50:46.19Z</time></trkpt><trkpt lat="44.8757767" lon="9.6178083"><ele>406.0</ele><time>2026-04-05T13:50:47.19Z</time></trkpt><trkpt lat="44.8758267" lon="9.617945"><ele>406.0</ele><time>2026-04-05T13:50:48.188Z</time></trkpt><trkpt lat="44.8758817" lon="9.6180583"><ele>406.0</ele><time>2026-04-05T13:50:49.188Z</time></trkpt><trkpt lat="44.87593" lon="9.6181633"><ele>406.0</ele><time>2026-04-05T13:50:50.19Z</time></trkpt><trkpt lat="44.8759617" lon="9.6182617"><ele>404.8</ele><time>2026-04-05T13:50:51.188Z</time></trkpt><trkpt lat="44.8759717" lon="9.6183583"><ele>403.6</ele><time>2026-04-05T13:50:52.189Z</time></trkpt><trkpt lat="44.8758967" lon="9.6184933"><ele>402.4</ele><time>2026-04-05T13:50:54.188Z</time></trkpt><trkpt lat="44.87582" lon="9.6185067"><ele>401.2</ele><time>2026-04-05T13:50:55.188Z</time></trkpt><trkpt lat="44.8757367" lon="9.6184783"><ele>400.0</ele><time>2026-04-05T13:50:56.188Z</time></trkpt><trkpt lat="44.8756483" lon="9.6184133"><ele>400.00000000000006</ele><time>2026-04-05T13:50:57.189Z</time></trkpt><trkpt lat="44.8755717" lon="9.6183267"><ele>400.0</ele><time>2026-04-05T13:50:58.188Z</time></trkpt><trkpt lat="44.8755117" lon="9.618235"><ele>400.0</ele><time>2026-04-05T13:50:59.188Z</time></trkpt><trkpt lat="44.87547" lon="9.6181383"><ele>400.0</ele><time>2026-04-05T13:51:00.19Z</time></trkpt><trkpt lat="44.87545" lon="9.618035"><ele>400.00000000000006</ele><time>2026-04-05T13:51:01.188Z</time></trkpt><trkpt lat="44.8754533" lon="9.6179083"><ele>400.0</ele><time>2026-04-05T13:51:02.189Z</time></trkpt><trkpt lat="44.8754433" lon="9.617765"><ele>401.2</ele><time>2026-04-05T13:51:03.188Z</time></trkpt><trkpt lat="44.8754167" lon="9.61762"><ele>402.4</ele><time>2026-04-05T13:51:04.189Z</time></trkpt><trkpt lat="44.8753733" lon="9.6174817"><ele>403.6</ele><time>2026-04-05T13:51:05.188Z</time></trkpt><trkpt lat="44.8753083" lon="9.6173633"><ele>404.8</ele><time>2026-04-05T13:51:06.188Z</time></trkpt><trkpt lat="44.8752367" lon="9.6172717"><ele>406.0</ele><time>2026-04-05T13:51:07.189Z</time></trkpt><trkpt lat="44.8751683" lon="9.617205"><ele>404.1666666666667</ele><time>2026-04-05T13:51:08.189Z</time></trkpt><trkpt lat="44.8750983" lon="9.61716"><ele>402.33333333333337</ele><time>2026-04-05T13:51:09.188Z</time></trkpt><trkpt lat="44.8750267" lon="9.6171383"><ele>400.5</ele><time>2026-04-05T13:51:10.191Z</time></trkpt><trkpt lat="44.8749667" lon="9.6171717"><ele>398.66666666666663</ele><time>2026-04-05T13:51:11.188Z</time></trkpt><trkpt lat="44.87491" lon="9.6172383"><ele>396.8333333333333</ele><time>2026-04-05T13:51:12.188Z</time></trkpt><trkpt lat="44.8748667" lon="9.6173517"><ele>395.0</ele><time>2026-04-05T13:51:13.188Z</time></trkpt><trkpt lat="44.8748517" lon="9.6174967"><ele>395.0</ele><time>2026-04-05T13:51:14.189Z</time></trkpt><trkpt lat="44.8748733" lon="9.6177017"><ele>395.0</ele><time>2026-04-05T13:51:15.189Z</time></trkpt><trkpt lat="44.8749" lon="9.6179233"><ele>395.0</ele><time>2026-04-05T13:51:16.189Z</time></trkpt><trkpt lat="44.874915" lon="9.6181483"><ele>392.0</ele><time>2026-04-05T13:51:17.189Z</time></trkpt><trkpt lat="44.8749217" lon="9.6183633"><ele>389.0</ele><time>2026-04-05T13:51:18.189Z</time></trkpt><trkpt lat="44.8749333" lon="9.6185867"><ele>386.0</ele><time>2026-04-05T13:51:19.188Z</time></trkpt><trkpt lat="44.8749467" lon="9.6188"><ele>384.3333333333333</ele><time>2026-04-05T13:51:20.189Z</time></trkpt><trkpt lat="44.874965" lon="9.619015"><ele>382.66666666666663</ele><time>2026-04-05T13:51:21.189Z</time></trkpt><trkpt lat="44.8749867" lon="9.6192283"><ele>381.0</ele><time>2026-04-05T13:51:22.19Z</time></trkpt><trkpt lat="44.87501" lon="9.6194483"><ele>378.0</ele><time>2026-04-05T13:51:23.19Z</time></trkpt><trkpt lat="44.8750383" lon="9.61968"><ele>375.0</ele><time>2026-04-05T13:51:24.19Z</time></trkpt><trkpt lat="44.8750667" lon="9.619925"><ele>372.0</ele><time>2026-04-05T13:51:25.19Z</time></trkpt><trkpt lat="44.8750967" lon="9.6201633"><ele>373.6666666666667</ele><time>2026-04-05T13:51:26.191Z</time></trkpt><trkpt lat="44.8751283" lon="9.62039"><ele>375.33333333333337</ele><time>2026-04-05T13:51:27.19Z</time></trkpt><trkpt lat="44.8751633" lon="9.620605"><ele>377.0</ele><time>2026-04-05T13:51:28.19Z</time></trkpt><trkpt lat="44.875205" lon="9.62081"><ele>377.0</ele><time>2026-04-05T13:51:29.191Z</time></trkpt><trkpt lat="44.8752567" lon="9.62101"><ele>377.0</ele><time>2026-04-05T13:51:30.191Z</time></trkpt><trkpt lat="44.87531" lon="9.6212"><ele>377.0</ele><time>2026-04-05T13:51:31.19Z</time></trkpt><trkpt lat="44.8753633" lon="9.6213733"><ele>377.0</ele><time>2026-04-05T13:51:32.193Z</time></trkpt><trkpt lat="44.8754133" lon="9.62153"><ele>374.6</ele><time>2026-04-05T13:51:33.19Z</time></trkpt><trkpt lat="44.875455" lon="9.621675"><ele>372.20000000000005</ele><time>2026-04-05T13:51:34.194Z</time></trkpt><trkpt lat="44.8754817" lon="9.6218167"><ele>369.8</ele><time>2026-04-05T13:51:35.191Z</time></trkpt><trkpt lat="44.8754867" lon="9.62196"><ele>367.4</ele><time>2026-04-05T13:51:36.189Z</time></trkpt><trkpt lat="44.87547" lon="9.6220917"><ele>365.0</ele><time>2026-04-05T13:51:37.188Z</time></trkpt><trkpt lat="44.8754433" lon="9.6222017"><ele>363.2</ele><time>2026-04-05T13:51:38.189Z</time></trkpt><trkpt lat="44.87541" lon="9.6222833"><ele>361.4</ele><time>2026-04-05T13:51:39.188Z</time></trkpt><trkpt lat="44.8752983" lon="9.62231"><ele>359.6</ele><time>2026-04-05T13:51:41.188Z</time></trkpt><trkpt lat="44.8752317" lon="9.6222617"><ele>357.8</ele><time>2026-04-05T13:51:42.188Z</time></trkpt><trkpt lat="44.87517" lon="9.62215"><ele>356.0</ele><time>2026-04-05T13:51:43.189Z</time></trkpt><trkpt lat="44.875105" lon="9.6219867"><ele>357.0</ele><time>2026-04-05T13:51:44.189Z</time></trkpt><trkpt lat="44.8750333" lon="9.6218033"><ele>358.0</ele><time>2026-04-05T13:51:45.188Z</time></trkpt><trkpt lat="44.8749483" lon="9.6216133"><ele>359.0</ele><time>2026-04-05T13:51:46.188Z</time></trkpt><trkpt lat="44.8748633" lon="9.6214317"><ele>359.0</ele><time>2026-04-05T13:51:47.188Z</time></trkpt><trkpt lat="44.874785" lon="9.62126"><ele>359.0</ele><time>2026-04-05T13:51:48.188Z</time></trkpt><trkpt lat="44.8747083" lon="9.6211033"><ele>359.0</ele><time>2026-04-05T13:51:49.189Z</time></trkpt><trkpt lat="44.8746367" lon="9.6209483"><ele>359.0</ele><time>2026-04-05T13:51:50.19Z</time></trkpt><trkpt lat="44.8745717" lon="9.6208033"><ele>358.5</ele><time>2026-04-05T13:51:51.19Z</time></trkpt><trkpt lat="44.8745117" lon="9.6206683"><ele>358.0</ele><time>2026-04-05T13:51:52.19Z</time></trkpt><trkpt lat="44.8744483" lon="9.6205617"><ele>357.5</ele><time>2026-04-05T13:51:53.19Z</time></trkpt><trkpt lat="44.874385" lon="9.6204933"><ele>357.0</ele><time>2026-04-05T13:51:54.19Z</time></trkpt><trkpt lat="44.8743183" lon="9.6204567"><ele>356.5</ele><time>2026-04-05T13:51:55.192Z</time></trkpt><trkpt lat="44.8742483" lon="9.6204533"><ele>356.0</ele><time>2026-04-05T13:51:56.19Z</time></trkpt><trkpt lat="44.8741833" lon="9.620485"><ele>355.99999999999994</ele><time>2026-04-05T13:51:57.19Z</time></trkpt><trkpt lat="44.8741367" lon="9.6205483"><ele>356.0</ele><time>2026-04-05T13:51:58.189Z</time></trkpt><trkpt lat="44.87411" lon="9.6206317"><ele>356.0</ele><time>2026-04-05T13:51:59.189Z</time></trkpt><trkpt lat="44.8741083" lon="9.6207333"><ele>356.0</ele><time>2026-04-05T13:52:00.188Z</time></trkpt><trkpt lat="44.8741233" lon="9.62083"><ele>356.0</ele><time>2026-04-05T13:52:01.189Z</time></trkpt><trkpt lat="44.8741417" lon="9.6209333"><ele>355.99999999999994</ele><time>2026-04-05T13:52:02.189Z</time></trkpt><trkpt lat="44.8741567" lon="9.6210433"><ele>356.0</ele><time>2026-04-05T13:52:03.188Z</time></trkpt><trkpt lat="44.8741783" lon="9.621165"><ele>355.4</ele><time>2026-04-05T13:52:04.188Z</time></trkpt><trkpt lat="44.8742" lon="9.6213017"><ele>354.8</ele><time>2026-04-05T13:52:05.189Z</time></trkpt><trkpt lat="44.8742233" lon="9.6214533"><ele>354.2</ele><time>2026-04-05T13:52:06.189Z</time></trkpt><trkpt lat="44.874245" lon="9.621615"><ele>353.59999999999997</ele><time>2026-04-05T13:52:07.188Z</time></trkpt><trkpt lat="44.8742683" lon="9.6217833"><ele>353.0</ele><time>2026-04-05T13:52:08.188Z</time></trkpt><trkpt lat="44.8742933" lon="9.6219583"><ele>352.5</ele><time>2026-04-05T13:52:09.188Z</time></trkpt><trkpt lat="44.87432" lon="9.6221383"><ele>352.0</ele><time>2026-04-05T13:52:10.188Z</time></trkpt><trkpt lat="44.8743467" lon="9.6223183"><ele>351.5</ele><time>2026-04-05T13:52:11.188Z</time></trkpt><trkpt lat="44.8743717" lon="9.6224917"><ele>351.0</ele><time>2026-04-05T13:52:12.189Z</time></trkpt><trkpt lat="44.8743967" lon="9.62266"><ele>348.8</ele><time>2026-04-05T13:52:13.188Z</time></trkpt><trkpt lat="44.8744233" lon="9.6228183"><ele>346.6</ele><time>2026-04-05T13:52:14.189Z</time></trkpt><trkpt lat="44.8744517" lon="9.6229667"><ele>344.4</ele><time>2026-04-05T13:52:15.188Z</time></trkpt><trkpt lat="44.8744833" lon="9.6230967"><ele>342.2</ele><time>2026-04-05T13:52:16.188Z</time></trkpt><trkpt lat="44.87453" lon="9.62321"><ele>340.0</ele><time>2026-04-05T13:52:17.188Z</time></trkpt><trkpt lat="44.8745983" lon="9.6233133"><ele>340.0</ele><time>2026-04-05T13:52:18.189Z</time></trkpt><trkpt lat="44.8746867" lon="9.6234033"><ele>340.0</ele><time>2026-04-05T13:52:19.19Z</time></trkpt><trkpt lat="44.8747733" lon="9.623485"><ele>340.0</ele><time>2026-04-05T13:52:20.19Z</time></trkpt><trkpt lat="44.8748467" lon="9.6235633"><ele>340.0</ele><time>2026-04-05T13:52:21.194Z</time></trkpt><trkpt lat="44.87491" lon="9.623635"><ele>340.0</ele><time>2026-04-05T13:52:22.189Z</time></trkpt><trkpt lat="44.8749883" lon="9.6237517"><ele>339.4</ele><time>2026-04-05T13:52:24.191Z</time></trkpt><trkpt lat="44.8749967" lon="9.6238633"><ele>338.8</ele><time>2026-04-05T13:52:26.191Z</time></trkpt><trkpt lat="44.8749667" lon="9.6240583"><ele>338.20000000000005</ele><time>2026-04-05T13:52:28.192Z</time></trkpt><trkpt lat="44.8749583" lon="9.624185"><ele>337.6</ele><time>2026-04-05T13:52:29.188Z</time></trkpt><trkpt lat="44.8749717" lon="9.6243183"><ele>337.0</ele><time>2026-04-05T13:52:30.188Z</time></trkpt><trkpt lat="44.8750217" lon="9.6244583"><ele>336.0</ele><time>2026-04-05T13:52:31.189Z</time></trkpt><trkpt lat="44.875105" lon="9.6246"><ele>335.0</ele><time>2026-04-05T13:52:32.188Z</time></trkpt><trkpt lat="44.8752167" lon="9.6247667"><ele>334.0</ele><time>2026-04-05T13:52:33.188Z</time></trkpt><trkpt lat="44.8753583" lon="9.6249683"><ele>334.0</ele><time>2026-04-05T13:52:34.188Z</time></trkpt><trkpt lat="44.8755083" lon="9.6251883"><ele>334.0</ele><time>2026-04-05T13:52:35.189Z</time></trkpt><trkpt lat="44.8756583" lon="9.6253983"><ele>334.0</ele><time>2026-04-05T13:52:36.188Z</time></trkpt><trkpt lat="44.87578" lon="9.62561"><ele>338.3333333333333</ele><time>2026-04-05T13:52:37.188Z</time></trkpt><trkpt lat="44.8758817" lon="9.6258167"><ele>342.6666666666667</ele><time>2026-04-05T13:52:38.189Z</time></trkpt><trkpt lat="44.875965" lon="9.6260083"><ele>347.0</ele><time>2026-04-05T13:52:39.191Z</time></trkpt><trkpt lat="44.8760267" lon="9.6261867"><ele>341.25</ele><time>2026-04-05T13:52:40.188Z</time></trkpt><trkpt lat="44.8760633" lon="9.6263683"><ele>335.5</ele><time>2026-04-05T13:52:41.188Z</time></trkpt><trkpt lat="44.87608" lon="9.62656"><ele>329.75</ele><time>2026-04-05T13:52:42.188Z</time></trkpt><trkpt lat="44.876065" lon="9.626775"><ele>324.0</ele><time>2026-04-05T13:52:43.189Z</time></trkpt><trkpt lat="44.87603" lon="9.627015"><ele>324.0</ele><time>2026-04-05T13:52:44.189Z</time></trkpt><trkpt lat="44.8759983" lon="9.6272467"><ele>324.0</ele><time>2026-04-05T13:52:45.188Z</time></trkpt><trkpt lat="44.87599" lon="9.627465"><ele>324.0</ele><time>2026-04-05T13:52:46.189Z</time></trkpt><trkpt lat="44.876" lon="9.627675"><ele>326.25</ele><time>2026-04-05T13:52:47.189Z</time></trkpt><trkpt lat="44.8760133" lon="9.627875"><ele>328.5</ele><time>2026-04-05T13:52:48.188Z</time></trkpt><trkpt lat="44.8760367" lon="9.6280567"><ele>330.75</ele><time>2026-04-05T13:52:49.188Z</time></trkpt><trkpt lat="44.876055" lon="9.6282317"><ele>333.0</ele><time>2026-04-05T13:52:50.193Z</time></trkpt><trkpt lat="44.876065" lon="9.6284167"><ele>333.0</ele><time>2026-04-05T13:52:51.188Z</time></trkpt><trkpt lat="44.876055" lon="9.628635"><ele>333.0</ele><time>2026-04-05T13:52:52.189Z</time></trkpt><trkpt lat="44.87602" lon="9.6288933"><ele>333.0</ele><time>2026-04-05T13:52:53.19Z</time></trkpt><trkpt lat="44.8759583" lon="9.6291883"><ele>329.6666666666667</ele><time>2026-04-05T13:52:54.193Z</time></trkpt><trkpt lat="44.8758917" lon="9.62947"><ele>326.33333333333337</ele><time>2026-04-05T13:52:55.19Z</time></trkpt><trkpt lat="44.87584" lon="9.6297283"><ele>323.0</ele><time>2026-04-05T13:52:56.192Z</time></trkpt><trkpt lat="44.8758083" lon="9.62998"><ele>320.33333333333337</ele><time>2026-04-05T13:52:57.19Z</time></trkpt><trkpt lat="44.8757933" lon="9.630215"><ele>317.6666666666667</ele><time>2026-04-05T13:52:58.191Z</time></trkpt><trkpt lat="44.87578" lon="9.6304233"><ele>315.0</ele><time>2026-04-05T13:52:59.188Z</time></trkpt><trkpt lat="44.87576" lon="9.630615"><ele>312.6666666666667</ele><time>2026-04-05T13:53:00.188Z</time></trkpt><trkpt lat="44.8757017" lon="9.6308117"><ele>310.33333333333337</ele><time>2026-04-05T13:53:01.189Z</time></trkpt><trkpt lat="44.8756083" lon="9.6310367"><ele>308.0</ele><time>2026-04-05T13:53:02.189Z</time></trkpt><trkpt lat="44.8754933" lon="9.6312833"><ele>305.33333333333337</ele><time>2026-04-05T13:53:03.188Z</time></trkpt><trkpt lat="44.8753833" lon="9.6315167"><ele>302.6666666666667</ele><time>2026-04-05T13:53:04.188Z</time></trkpt><trkpt lat="44.8752867" lon="9.6317167"><ele>300.0</ele><time>2026-04-05T13:53:05.188Z</time></trkpt><trkpt lat="44.8752083" lon="9.6318867"><ele>300.5</ele><time>2026-04-05T13:53:06.19Z</time></trkpt><trkpt lat="44.8751433" lon="9.632045"><ele>301.0</ele><time>2026-04-05T13:53:07.189Z</time></trkpt><trkpt lat="44.8750917" lon="9.6322017"><ele>301.5</ele><time>2026-04-05T13:53:08.189Z</time></trkpt><trkpt lat="44.8750617" lon="9.632365"><ele>302.0</ele><time>2026-04-05T13:53:09.188Z</time></trkpt><trkpt lat="44.8750517" lon="9.632535"><ele>302.0</ele><time>2026-04-05T13:53:10.188Z</time></trkpt><trkpt lat="44.8750533" lon="9.6326983"><ele>302.0</ele><time>2026-04-05T13:53:11.189Z</time></trkpt><trkpt lat="44.8750417" lon="9.632845"><ele>302.0</ele><time>2026-04-05T13:53:12.189Z</time></trkpt><trkpt lat="44.8750133" lon="9.6329833"><ele>302.0</ele><time>2026-04-05T13:53:13.189Z</time></trkpt><trkpt lat="44.8749383" lon="9.6332667"><ele>301.75</ele><time>2026-04-05T13:53:15.189Z</time></trkpt><trkpt lat="44.8749367" lon="9.633415"><ele>301.5</ele><time>2026-04-05T13:53:16.192Z</time></trkpt><trkpt lat="44.8749683" lon="9.633575"><ele>301.25</ele><time>2026-04-05T13:53:17.19Z</time></trkpt><trkpt lat="44.875015" lon="9.6337433"><ele>301.0</ele><time>2026-04-05T13:53:18.189Z</time></trkpt><trkpt lat="44.8750633" lon="9.6339117"><ele>301.66666666666663</ele><time>2026-04-05T13:53:19.19Z</time></trkpt><trkpt lat="44.87511" lon="9.6341017"><ele>302.3333333333333</ele><time>2026-04-05T13:53:20.19Z</time></trkpt><trkpt lat="44.875165" lon="9.6343267"><ele>303.0</ele><time>2026-04-05T13:53:21.19Z</time></trkpt><trkpt lat="44.8752233" lon="9.6345567"><ele>301.0</ele><time>2026-04-05T13:53:22.191Z</time></trkpt><trkpt lat="44.8752983" lon="9.6347767"><ele>299.0</ele><time>2026-04-05T13:53:23.193Z</time></trkpt><trkpt lat="44.8753667" lon="9.6349867"><ele>297.0</ele><time>2026-04-05T13:53:24.19Z</time></trkpt><trkpt lat="44.875415" lon="9.6351767"><ele>295.5</ele><time>2026-04-05T13:53:25.189Z</time></trkpt><trkpt lat="44.8754483" lon="9.6353533"><ele>294.0</ele><time>2026-04-05T13:53:26.193Z</time></trkpt><trkpt lat="44.8754683" lon="9.6355333"><ele>292.5</ele><time>2026-04-05T13:53:27.19Z</time></trkpt><trkpt lat="44.8754683" lon="9.6357333"><ele>291.0</ele><time>2026-04-05T13:53:28.19Z</time></trkpt><trkpt lat="44.875445" lon="9.635955"><ele>290.6666666666667</ele><time>2026-04-05T13:53:29.188Z</time></trkpt><trkpt lat="44.8754133" lon="9.6361767"><ele>290.33333333333337</ele><time>2026-04-05T13:53:30.188Z</time></trkpt><trkpt lat="44.8753717" lon="9.63639"><ele>290.0</ele><time>2026-04-05T13:53:31.188Z</time></trkpt><trkpt lat="44.8753317" lon="9.6366117"><ele>290.0</ele><time>2026-04-05T13:53:32.19Z</time></trkpt><trkpt lat="44.8752883" lon="9.6368383"><ele>290.0</ele><time>2026-04-05T13:53:33.189Z</time></trkpt><trkpt lat="44.87524" lon="9.6370617"><ele>290.0</ele><time>2026-04-05T13:53:34.188Z</time></trkpt><trkpt lat="44.875195" lon="9.63727"><ele>289.75</ele><time>2026-04-05T13:53:35.189Z</time></trkpt><trkpt lat="44.875145" lon="9.63747"><ele>289.5</ele><time>2026-04-05T13:53:36.189Z</time></trkpt><trkpt lat="44.875095" lon="9.63766"><ele>289.25</ele><time>2026-04-05T13:53:37.188Z</time></trkpt><trkpt lat="44.87504" lon="9.6378467"><ele>289.0</ele><time>2026-04-05T13:53:38.188Z</time></trkpt><trkpt lat="44.8749717" lon="9.63803"><ele>281.25</ele><time>2026-04-05T13:53:39.19Z</time></trkpt><trkpt lat="44.8748933" lon="9.6382067"><ele>273.5</ele><time>2026-04-05T13:53:40.19Z</time></trkpt><trkpt lat="44.874815" lon="9.6383817"><ele>265.75</ele><time>2026-04-05T13:53:41.188Z</time></trkpt><trkpt lat="44.874745" lon="9.6385483"><ele>258.0</ele><time>2026-04-05T13:53:42.188Z</time></trkpt><trkpt lat="44.8746767" lon="9.63871"><ele>257.5</ele><time>2026-04-05T13:53:43.189Z</time></trkpt><trkpt lat="44.8746083" lon="9.6388683"><ele>257.0</ele><time>2026-04-05T13:53:44.189Z</time></trkpt><trkpt lat="44.87455" lon="9.639015"><ele>256.5</ele><time>2026-04-05T13:53:45.189Z</time></trkpt><trkpt lat="44.8745117" lon="9.6391683"><ele>256.0</ele><time>2026-04-05T13:53:46.188Z</time></trkpt><trkpt lat="44.8744883" lon="9.6393333"><ele>255.0</ele><time>2026-04-05T13:53:47.19Z</time></trkpt><trkpt lat="44.874485" lon="9.6395117"><ele>254.0</ele><time>2026-04-05T13:53:48.189Z</time></trkpt><trkpt lat="44.87448" lon="9.63971"><ele>253.0</ele><time>2026-04-05T13:53:49.189Z</time></trkpt><trkpt lat="44.8744733" lon="9.63992"><ele>252.0</ele><time>2026-04-05T13:53:50.189Z</time></trkpt><trkpt lat="44.8744717" lon="9.6401283"><ele>252.0</ele><time>2026-04-05T13:53:51.192Z</time></trkpt><trkpt lat="44.8744767" lon="9.6403317"><ele>252.0</ele><time>2026-04-05T13:53:52.189Z</time></trkpt><trkpt lat="44.8744833" lon="9.6405217"><ele>252.0</ele><time>2026-04-05T13:53:53.189Z</time></trkpt><trkpt lat="44.874485" lon="9.6407083"><ele>252.0</ele><time>2026-04-05T13:53:54.19Z</time></trkpt><trkpt lat="44.874475" lon="9.6408983"><ele>252.0</ele><time>2026-04-05T13:53:55.189Z</time></trkpt><trkpt lat="44.874455" lon="9.6410917"><ele>252.0</ele><time>2026-04-05T13:53:56.191Z</time></trkpt><trkpt lat="44.874435" lon="9.641295"><ele>252.0</ele><time>2026-04-05T13:53:57.188Z</time></trkpt><trkpt lat="44.8744183" lon="9.6415017"><ele>252.0</ele><time>2026-04-05T13:53:58.188Z</time></trkpt><trkpt lat="44.8744067" lon="9.6417083"><ele>252.25</ele><time>2026-04-05T13:53:59.188Z</time></trkpt><trkpt lat="44.8744" lon="9.6419083"><ele>252.5</ele><time>2026-04-05T13:54:00.188Z</time></trkpt><trkpt lat="44.8743967" lon="9.6421033"><ele>252.75</ele><time>2026-04-05T13:54:01.188Z</time></trkpt><trkpt lat="44.874395" lon="9.6422967"><ele>253.0</ele><time>2026-04-05T13:54:02.189Z</time></trkpt><trkpt lat="44.874395" lon="9.6424833"><ele>253.0</ele><time>2026-04-05T13:54:03.188Z</time></trkpt><trkpt lat="44.8743917" lon="9.6426667"><ele>253.0</ele><time>2026-04-05T13:54:04.188Z</time></trkpt><trkpt lat="44.8743867" lon="9.6428417"><ele>253.0</ele><time>2026-04-05T13:54:05.189Z</time></trkpt><trkpt lat="44.8743833" lon="9.6430083"><ele>253.0</ele><time>2026-04-05T13:54:06.189Z</time></trkpt><trkpt lat="44.87438" lon="9.6431583"><ele>250.4</ele><time>2026-04-05T13:54:07.188Z</time></trkpt><trkpt lat="44.874375" lon="9.6432933"><ele>247.8</ele><time>2026-04-05T13:54:08.189Z</time></trkpt><trkpt lat="44.8743667" lon="9.6434"><ele>245.2</ele><time>2026-04-05T13:54:09.189Z</time></trkpt><trkpt lat="44.8743167" lon="9.6435267"><ele>242.6</ele><time>2026-04-05T13:54:11.189Z</time></trkpt><trkpt lat="44.87421" lon="9.6435817"><ele>240.0</ele><time>2026-04-05T13:54:13.188Z</time></trkpt><trkpt lat="44.8741383" lon="9.6436033"><ele>233.16666666666666</ele><time>2026-04-05T13:54:14.191Z</time></trkpt><trkpt lat="44.8740667" lon="9.6436333"><ele>226.33333333333331</ele><time>2026-04-05T13:54:15.188Z</time></trkpt><trkpt lat="44.8739917" lon="9.643665"><ele>219.5</ele><time>2026-04-05T13:54:16.189Z</time></trkpt><trkpt lat="44.8739183" lon="9.6436933"><ele>212.66666666666666</ele><time>2026-04-05T13:54:17.189Z</time></trkpt><trkpt lat="44.8738433" lon="9.643725"><ele>205.83333333333331</ele><time>2026-04-05T13:54:18.188Z</time></trkpt><trkpt lat="44.873765" lon="9.6437583"><ele>199.0</ele><time>2026-04-05T13:54:19.189Z</time></trkpt><trkpt lat="44.8736833" lon="9.643795"><ele>198.99999999999997</ele><time>2026-04-05T13:54:20.189Z</time></trkpt><trkpt lat="44.8735983" lon="9.6438333"><ele>199.0</ele><time>2026-04-05T13:54:21.189Z</time></trkpt><trkpt lat="44.8735117" lon="9.6438717"><ele>199.0</ele><time>2026-04-05T13:54:22.189Z</time></trkpt><trkpt lat="44.873425" lon="9.6439117"><ele>199.0</ele><time>2026-04-05T13:54:23.188Z</time></trkpt><trkpt lat="44.8733433" lon="9.6439467"><ele>198.99999999999997</ele><time>2026-04-05T13:54:24.19Z</time></trkpt><trkpt lat="44.873275" lon="9.6439767"><ele>199.0</ele><time>2026-04-05T13:54:25.189Z</time></trkpt><trkpt lat="44.873185" lon="9.6440117"><ele>198.99999999999997</ele><time>2026-04-05T13:54:27.188Z</time></trkpt><trkpt lat="44.8730817" lon="9.644045"><ele>199.0</ele><time>2026-04-05T13:54:39.19Z</time></trkpt><trkpt lat="44.8730167" lon="9.6440417"><ele>199.0</ele><time>2026-04-05T13:54:40.189Z</time></trkpt><trkpt lat="44.8729467" lon="9.6440117"><ele>199.0</ele><time>2026-04-05T13:54:41.189Z</time></trkpt><trkpt lat="44.8728733" lon="9.6439517"><ele>198.99999999999997</ele><time>2026-04-05T13:54:42.188Z</time></trkpt><trkpt lat="44.8728067" lon="9.6438817"><ele>199.0</ele><time>2026-04-05T13:54:43.19Z</time></trkpt><trkpt lat="44.8727483" lon="9.6438083"><ele>198.99999999999997</ele><time>2026-04-05T13:54:44.189Z</time></trkpt><trkpt lat="44.8727067" lon="9.6437233"><ele>199.0</ele><time>2026-04-05T13:54:45.191Z</time></trkpt><trkpt lat="44.8726783" lon="9.643565"><ele>199.0</ele><time>2026-04-05T13:54:47.188Z</time></trkpt><trkpt lat="44.87266" lon="9.643465"><ele>199.0</ele><time>2026-04-05T13:54:48.188Z</time></trkpt><trkpt lat="44.8726333" lon="9.6433733"><ele>198.99999999999997</ele><time>2026-04-05T13:54:49.188Z</time></trkpt><trkpt lat="44.8726017" lon="9.643295"><ele>199.0</ele><time>2026-04-05T13:54:50.188Z</time></trkpt><trkpt lat="44.8725517" lon="9.64318"><ele>204.0</ele><time>2026-04-05T13:54:52.189Z</time></trkpt><trkpt lat="44.8725233" lon="9.6430933"><ele>204.0</ele><time>2026-04-05T13:54:55.189Z</time></trkpt></trkseg></trk></gpx>